<?xml version="1.0" encoding="UTF-8" standalone="no" ?>
<gpx xmlns="http://www.topografix.com/GPX/1/1" xmlns:xsi="http://www.w3.org/2001/XMLSchema-instance" xsi:schemaLocation="http://www.topografix.com/GPX/1/1 http://www.topografix.com/GPX/1/1/gpx.xsd" version="1.1" creator="VisuGPX - https://www.visugpx.com">
  <metadata>
    <name>XTERRAVTTXONRUPT</name>
    <desc><![CDATA[name=Sans titre
time=2020-03-12T10:21:21.000Z]]></desc>
  </metadata>
  <wpt lat="48.07882" lon="6.94586">
    <ele>739</ele>
    <name><![CDATA[]]></name>
    <desc><![CDATA[]]></desc>
  </wpt>
  <wpt lat="48.0786" lon="6.94413">
    <ele>738.9</ele>
    <name><![CDATA[]]></name>
    <desc><![CDATA[]]></desc>
  </wpt>
  <wpt lat="48.0418" lon="6.91349">
    <ele>1059.9</ele>
    <name><![CDATA[Ravito]]></name>
    <desc><![CDATA[name=Ravito]]></desc>
  </wpt>
  <wpt lat="48.07789" lon="6.94305">
    <ele>739</ele>
    <name><![CDATA[Ravito2]]></name>
    <desc><![CDATA[name=Ravito2]]></desc>
  </wpt>
  <trk>
    <name><![CDATA[Sans titre]]></name>
    <desc><![CDATA[name=Sans titre
time=2020-03-12T10:21:21.000Z]]></desc>
    <trkseg>
      <trkpt lat="48.07859" lon="6.9441">
        <ele>738.030579</ele>
        <time>2020-03-12T10:21:21.000Z</time>
      </trkpt>
      <trkpt lat="48.07845" lon="6.94369">
        <ele>737.542297</ele>
        <time>2020-03-12T10:21:21.006Z</time>
      </trkpt>
      <trkpt lat="48.0782" lon="6.94318">
        <ele>737</ele>
        <time>2020-03-12T10:21:21.021Z</time>
      </trkpt>
      <trkpt lat="48.07814" lon="6.94291">
        <ele>736.951233</ele>
        <time>2020-03-12T10:21:21.039Z</time>
      </trkpt>
      <trkpt lat="48.07807" lon="6.94277">
        <ele>736.867249</ele>
        <time>2020-03-12T10:21:21.060Z</time>
      </trkpt>
      <trkpt lat="48.07812" lon="6.94216">
        <ele>738.151978</ele>
        <time>2020-03-12T10:21:21.089Z</time>
      </trkpt>
      <trkpt lat="48.07808" lon="6.94201">
        <ele>738.883606</ele>
        <time>2020-03-12T10:21:21.120Z</time>
      </trkpt>
      <trkpt lat="48.07807" lon="6.9417">
        <ele>738.607666</ele>
        <time>2020-03-12T10:21:21.155Z</time>
      </trkpt>
      <trkpt lat="48.07796" lon="6.94106">
        <ele>749.769043</ele>
        <time>2020-03-12T10:21:21.199Z</time>
      </trkpt>
      <trkpt lat="48.07799" lon="6.94097">
        <ele>749.121155</ele>
        <time>2020-03-12T10:21:21.245Z</time>
      </trkpt>
      <trkpt lat="48.07838" lon="6.94041">
        <ele>743.342407</ele>
        <time>2020-03-12T10:21:21.301Z</time>
      </trkpt>
      <trkpt lat="48.07887" lon="6.93931">
        <ele>752.693542</ele>
        <time>2020-03-12T10:21:21.375Z</time>
      </trkpt>
      <trkpt lat="48.07906" lon="6.93876">
        <ele>751.776917</ele>
        <time>2020-03-12T10:21:21.457Z</time>
      </trkpt>
      <trkpt lat="48.07924" lon="6.93787">
        <ele>754.126038</ele>
        <time>2020-03-12T10:21:21.552Z</time>
      </trkpt>
      <trkpt lat="48.07929" lon="6.93776">
        <ele>754.136108</ele>
        <time>2020-03-12T10:21:21.649Z</time>
      </trkpt>
      <trkpt lat="48.07942" lon="6.93729">
        <ele>756.896362</ele>
        <time>2020-03-12T10:21:21.752Z</time>
      </trkpt>
      <trkpt lat="48.08018" lon="6.9353">
        <ele>753.799561</ele>
        <time>2020-03-12T10:21:21.886Z</time>
      </trkpt>
      <trkpt lat="48.08077" lon="6.93404">
        <ele>745.011963</ele>
        <time>2020-03-12T10:21:22.041Z</time>
      </trkpt>
      <trkpt lat="48.08082" lon="6.93391">
        <ele>744.882263</ele>
        <time>2020-03-12T10:21:22.198Z</time>
      </trkpt>
      <trkpt lat="48.08083" lon="6.93376">
        <ele>745.62616</ele>
        <time>2020-03-12T10:21:22.357Z</time>
      </trkpt>
      <trkpt lat="48.08076" lon="6.93364">
        <ele>748.841614</ele>
        <time>2020-03-12T10:21:22.518Z</time>
      </trkpt>
      <trkpt lat="48.08061" lon="6.93347">
        <ele>755.104553</ele>
        <time>2020-03-12T10:21:22.683Z</time>
      </trkpt>
      <trkpt lat="48.08054" lon="6.9333">
        <ele>758.679993</ele>
        <time>2020-03-12T10:21:22.850Z</time>
      </trkpt>
      <trkpt lat="48.08054" lon="6.93257">
        <ele>758.381531</ele>
        <time>2020-03-12T10:21:23.027Z</time>
      </trkpt>
      <trkpt lat="48.08028" lon="6.93158">
        <ele>759.857361</ele>
        <time>2020-03-12T10:21:23.218Z</time>
      </trkpt>
      <trkpt lat="48.08019" lon="6.93139">
        <ele>759.914124</ele>
        <time>2020-03-12T10:21:23.413Z</time>
      </trkpt>
      <trkpt lat="48.08008" lon="6.93123">
        <ele>760.612244</ele>
        <time>2020-03-12T10:21:23.611Z</time>
      </trkpt>
      <trkpt lat="48.07967" lon="6.93082">
        <ele>763.563782</ele>
        <time>2020-03-12T10:21:23.819Z</time>
      </trkpt>
      <trkpt lat="48.07943" lon="6.93053">
        <ele>763.499939</ele>
        <time>2020-03-12T10:21:24.033Z</time>
      </trkpt>
      <trkpt lat="48.07916" lon="6.93039">
        <ele>764.889282</ele>
        <time>2020-03-12T10:21:24.252Z</time>
      </trkpt>
      <trkpt lat="48.07878" lon="6.93032">
        <ele>766.526917</ele>
        <time>2020-03-12T10:21:24.479Z</time>
      </trkpt>
      <trkpt lat="48.07824" lon="6.93038">
        <ele>770.545532</ele>
        <time>2020-03-12T10:21:24.717Z</time>
      </trkpt>
      <trkpt lat="48.07801" lon="6.93038">
        <ele>770.619263</ele>
        <time>2020-03-12T10:21:24.960Z</time>
      </trkpt>
      <trkpt lat="48.07794" lon="6.9304">
        <ele>771.087158</ele>
        <time>2020-03-12T10:21:25.204Z</time>
      </trkpt>
      <trkpt lat="48.07792" lon="6.93043">
        <ele>771.687073</ele>
        <time>2020-03-12T10:21:25.449Z</time>
      </trkpt>
      <trkpt lat="48.07792" lon="6.93052">
        <ele>773.414795</ele>
        <time>2020-03-12T10:21:25.695Z</time>
      </trkpt>
      <trkpt lat="48.07802" lon="6.93071">
        <ele>776.9422</ele>
        <time>2020-03-12T10:21:25.944Z</time>
      </trkpt>
      <trkpt lat="48.07837" lon="6.931">
        <ele>782.716492</ele>
        <time>2020-03-12T10:21:26.201Z</time>
      </trkpt>
      <trkpt lat="48.07862" lon="6.93149">
        <ele>790.948059</ele>
        <time>2020-03-12T10:21:26.466Z</time>
      </trkpt>
      <trkpt lat="48.07872" lon="6.93174">
        <ele>794.341614</ele>
        <time>2020-03-12T10:21:26.735Z</time>
      </trkpt>
      <trkpt lat="48.07872" lon="6.93216">
        <ele>801.753967</ele>
        <time>2020-03-12T10:21:27.010Z</time>
      </trkpt>
      <trkpt lat="48.0787" lon="6.93219">
        <ele>802.5578</ele>
        <time>2020-03-12T10:21:27.285Z</time>
      </trkpt>
      <trkpt lat="48.07864" lon="6.9321">
        <ele>801.72998</ele>
        <time>2020-03-12T10:21:27.562Z</time>
      </trkpt>
      <trkpt lat="48.07847" lon="6.93204">
        <ele>802.893738</ele>
        <time>2020-03-12T10:21:27.843Z</time>
      </trkpt>
      <trkpt lat="48.07827" lon="6.93201">
        <ele>803.264771</ele>
        <time>2020-03-12T10:21:28.128Z</time>
      </trkpt>
      <trkpt lat="48.07805" lon="6.93204">
        <ele>804.384766</ele>
        <time>2020-03-12T10:21:28.417Z</time>
      </trkpt>
      <trkpt lat="48.07765" lon="6.93223">
        <ele>810.887695</ele>
        <time>2020-03-12T10:21:28.714Z</time>
      </trkpt>
      <trkpt lat="48.07758" lon="6.93228">
        <ele>812.18811</ele>
        <time>2020-03-12T10:21:29.013Z</time>
      </trkpt>
      <trkpt lat="48.07728" lon="6.93262">
        <ele>818.490967</ele>
        <time>2020-03-12T10:21:29.320Z</time>
      </trkpt>
      <trkpt lat="48.07694" lon="6.93292">
        <ele>823.341064</ele>
        <time>2020-03-12T10:21:29.634Z</time>
      </trkpt>
      <trkpt lat="48.07676" lon="6.93311">
        <ele>826.3526</ele>
        <time>2020-03-12T10:21:29.953Z</time>
      </trkpt>
      <trkpt lat="48.07673" lon="6.93317">
        <ele>827.432373</ele>
        <time>2020-03-12T10:21:30.273Z</time>
      </trkpt>
      <trkpt lat="48.07639" lon="6.93348">
        <ele>828.728821</ele>
        <time>2020-03-12T10:21:30.601Z</time>
      </trkpt>
      <trkpt lat="48.07635" lon="6.93349">
        <ele>828.452881</ele>
        <time>2020-03-12T10:21:30.930Z</time>
      </trkpt>
      <trkpt lat="48.07623" lon="6.93363">
        <ele>829.231995</ele>
        <time>2020-03-12T10:21:31.262Z</time>
      </trkpt>
      <trkpt lat="48.07614" lon="6.93382">
        <ele>830.887695</ele>
        <time>2020-03-12T10:21:31.597Z</time>
      </trkpt>
      <trkpt lat="48.07599" lon="6.93399">
        <ele>831.535583</ele>
        <time>2020-03-12T10:21:31.936Z</time>
      </trkpt>
      <trkpt lat="48.07588" lon="6.93429">
        <ele>836.413086</ele>
        <time>2020-03-12T10:21:32.279Z</time>
      </trkpt>
      <trkpt lat="48.07589" lon="6.93442">
        <ele>838.860657</ele>
        <time>2020-03-12T10:21:32.624Z</time>
      </trkpt>
      <trkpt lat="48.07594" lon="6.93449">
        <ele>840.138062</ele>
        <time>2020-03-12T10:21:32.970Z</time>
      </trkpt>
      <trkpt lat="48.076" lon="6.93467">
        <ele>844.313354</ele>
        <time>2020-03-12T10:21:33.319Z</time>
      </trkpt>
      <trkpt lat="48.07604" lon="6.9347">
        <ele>845.369141</ele>
        <time>2020-03-12T10:21:33.669Z</time>
      </trkpt>
      <trkpt lat="48.07612" lon="6.93486">
        <ele>849.400513</ele>
        <time>2020-03-12T10:21:34.022Z</time>
      </trkpt>
      <trkpt lat="48.07629" lon="6.93495">
        <ele>852.851135</ele>
        <time>2020-03-12T10:21:34.378Z</time>
      </trkpt>
      <trkpt lat="48.07646" lon="6.93483">
        <ele>852.903931</ele>
        <time>2020-03-12T10:21:34.738Z</time>
      </trkpt>
      <trkpt lat="48.07656" lon="6.93479">
        <ele>853.335815</ele>
        <time>2020-03-12T10:21:35.100Z</time>
      </trkpt>
      <trkpt lat="48.07679" lon="6.93482">
        <ele>856.252319</ele>
        <time>2020-03-12T10:21:35.467Z</time>
      </trkpt>
      <trkpt lat="48.07674" lon="6.93505">
        <ele>859.450012</ele>
        <time>2020-03-12T10:21:35.837Z</time>
      </trkpt>
      <trkpt lat="48.07677" lon="6.93519">
        <ele>861.341553</ele>
        <time>2020-03-12T10:21:36.209Z</time>
      </trkpt>
      <trkpt lat="48.07676" lon="6.93532">
        <ele>862.929443</ele>
        <time>2020-03-12T10:21:36.583Z</time>
      </trkpt>
      <trkpt lat="48.07658" lon="6.93636">
        <ele>870.404114</ele>
        <time>2020-03-12T10:21:36.971Z</time>
      </trkpt>
      <trkpt lat="48.07648" lon="6.93646">
        <ele>872.121948</ele>
        <time>2020-03-12T10:21:37.361Z</time>
      </trkpt>
      <trkpt lat="48.07633" lon="6.93655">
        <ele>874.173584</ele>
        <time>2020-03-12T10:21:37.755Z</time>
      </trkpt>
      <trkpt lat="48.07619" lon="6.93667">
        <ele>875.878052</ele>
        <time>2020-03-12T10:21:38.152Z</time>
      </trkpt>
      <trkpt lat="48.07599" lon="6.9369">
        <ele>879.489685</ele>
        <time>2020-03-12T10:21:38.554Z</time>
      </trkpt>
      <trkpt lat="48.07585" lon="6.93697">
        <ele>881.24176</ele>
        <time>2020-03-12T10:21:38.959Z</time>
      </trkpt>
      <trkpt lat="48.07542" lon="6.93702">
        <ele>884.71698</ele>
        <time>2020-03-12T10:21:39.373Z</time>
      </trkpt>
      <trkpt lat="48.07531" lon="6.93698">
        <ele>885.064941</ele>
        <time>2020-03-12T10:21:39.789Z</time>
      </trkpt>
      <trkpt lat="48.07526" lon="6.93699">
        <ele>885.628845</ele>
        <time>2020-03-12T10:21:40.206Z</time>
      </trkpt>
      <trkpt lat="48.07502" lon="6.93694">
        <ele>887.016052</ele>
        <time>2020-03-12T10:21:40.628Z</time>
      </trkpt>
      <trkpt lat="48.07464" lon="6.93691">
        <ele>890.231506</ele>
        <time>2020-03-12T10:21:41.057Z</time>
      </trkpt>
      <trkpt lat="48.07414" lon="6.93677">
        <ele>892.925842</ele>
        <time>2020-03-12T10:21:41.496Z</time>
      </trkpt>
      <trkpt lat="48.07399" lon="6.9367">
        <ele>893.621765</ele>
        <time>2020-03-12T10:21:41.939Z</time>
      </trkpt>
      <trkpt lat="48.07338" lon="6.93665">
        <ele>898.60614</ele>
        <time>2020-03-12T10:21:42.394Z</time>
      </trkpt>
      <trkpt lat="48.07323" lon="6.93658">
        <ele>898.990112</ele>
        <time>2020-03-12T10:21:42.852Z</time>
      </trkpt>
      <trkpt lat="48.07308" lon="6.93656">
        <ele>899.676147</ele>
        <time>2020-03-12T10:21:43.313Z</time>
      </trkpt>
      <trkpt lat="48.07254" lon="6.93655">
        <ele>902.633667</ele>
        <time>2020-03-12T10:21:43.785Z</time>
      </trkpt>
      <trkpt lat="48.07227" lon="6.93645">
        <ele>905.621155</ele>
        <time>2020-03-12T10:21:44.262Z</time>
      </trkpt>
      <trkpt lat="48.07211" lon="6.93642">
        <ele>907.180908</ele>
        <time>2020-03-12T10:21:44.743Z</time>
      </trkpt>
      <trkpt lat="48.07205" lon="6.93642">
        <ele>907.684814</ele>
        <time>2020-03-12T10:21:45.225Z</time>
      </trkpt>
      <trkpt lat="48.07199" lon="6.93647">
        <ele>907.828796</ele>
        <time>2020-03-12T10:21:45.708Z</time>
      </trkpt>
      <trkpt lat="48.07194" lon="6.93647">
        <ele>908.248718</ele>
        <time>2020-03-12T10:21:46.192Z</time>
      </trkpt>
      <trkpt lat="48.07172" lon="6.93664">
        <ele>908.419617</ele>
        <time>2020-03-12T10:21:46.681Z</time>
      </trkpt>
      <trkpt lat="48.07163" lon="6.93675">
        <ele>907.615723</ele>
        <time>2020-03-12T10:21:47.172Z</time>
      </trkpt>
      <trkpt lat="48.07133" lon="6.93686">
        <ele>908.323608</ele>
        <time>2020-03-12T10:21:47.670Z</time>
      </trkpt>
      <trkpt lat="48.07116" lon="6.93688">
        <ele>908.91925</ele>
        <time>2020-03-12T10:21:48.171Z</time>
      </trkpt>
      <trkpt lat="48.07076" lon="6.93685">
        <ele>910.824158</ele>
        <time>2020-03-12T10:21:48.680Z</time>
      </trkpt>
      <trkpt lat="48.07057" lon="6.93686">
        <ele>911.55603</ele>
        <time>2020-03-12T10:21:49.193Z</time>
      </trkpt>
      <trkpt lat="48.07052" lon="6.9369">
        <ele>911.076111</ele>
        <time>2020-03-12T10:21:49.707Z</time>
      </trkpt>
      <trkpt lat="48.07032" lon="6.93689">
        <ele>911.994141</ele>
        <time>2020-03-12T10:21:50.225Z</time>
      </trkpt>
      <trkpt lat="48.07015" lon="6.93694">
        <ele>911.382263</ele>
        <time>2020-03-12T10:21:50.746Z</time>
      </trkpt>
      <trkpt lat="48.06971" lon="6.93674">
        <ele>916.979797</ele>
        <time>2020-03-12T10:21:51.277Z</time>
      </trkpt>
      <trkpt lat="48.06956" lon="6.9366">
        <ele>920.375183</ele>
        <time>2020-03-12T10:21:51.811Z</time>
      </trkpt>
      <trkpt lat="48.06937" lon="6.93617">
        <ele>926.445435</ele>
        <time>2020-03-12T10:21:52.352Z</time>
      </trkpt>
      <trkpt lat="48.06929" lon="6.93609">
        <ele>927.693237</ele>
        <time>2020-03-12T10:21:52.895Z</time>
      </trkpt>
      <trkpt lat="48.06933" lon="6.93576">
        <ele>931.679871</ele>
        <time>2020-03-12T10:21:53.443Z</time>
      </trkpt>
      <trkpt lat="48.0694" lon="6.93568">
        <ele>932.21405</ele>
        <time>2020-03-12T10:21:53.992Z</time>
      </trkpt>
      <trkpt lat="48.06946" lon="6.93556">
        <ele>932.645996</ele>
        <time>2020-03-12T10:21:54.543Z</time>
      </trkpt>
      <trkpt lat="48.0695" lon="6.9354">
        <ele>933.221924</ele>
        <time>2020-03-12T10:21:55.097Z</time>
      </trkpt>
      <trkpt lat="48.06944" lon="6.93528">
        <ele>933.653809</ele>
        <time>2020-03-12T10:21:55.653Z</time>
      </trkpt>
      <trkpt lat="48.06917" lon="6.93511">
        <ele>934.706726</ele>
        <time>2020-03-12T10:21:56.214Z</time>
      </trkpt>
      <trkpt lat="48.06892" lon="6.93508">
        <ele>936.014526</ele>
        <time>2020-03-12T10:21:56.781Z</time>
      </trkpt>
      <trkpt lat="48.06833" lon="6.93518">
        <ele>937.921204</ele>
        <time>2020-03-12T10:21:57.359Z</time>
      </trkpt>
      <trkpt lat="48.06803" lon="6.93503">
        <ele>939.360962</ele>
        <time>2020-03-12T10:21:57.944Z</time>
      </trkpt>
      <trkpt lat="48.06765" lon="6.93496">
        <ele>940.608765</ele>
        <time>2020-03-12T10:21:58.536Z</time>
      </trkpt>
      <trkpt lat="48.06733" lon="6.93494">
        <ele>942.026794</ele>
        <time>2020-03-12T10:21:59.135Z</time>
      </trkpt>
      <trkpt lat="48.0672" lon="6.93489">
        <ele>942.895447</ele>
        <time>2020-03-12T10:21:59.736Z</time>
      </trkpt>
      <trkpt lat="48.06679" lon="6.93487">
        <ele>944.863098</ele>
        <time>2020-03-12T10:22:00.346Z</time>
      </trkpt>
      <trkpt lat="48.06667" lon="6.93489">
        <ele>946.102966</ele>
        <time>2020-03-12T10:22:00.958Z</time>
      </trkpt>
      <trkpt lat="48.06659" lon="6.93501">
        <ele>946.102966</ele>
        <time>2020-03-12T10:22:01.572Z</time>
      </trkpt>
      <trkpt lat="48.06649" lon="6.93525">
        <ele>945.455078</ele>
        <time>2020-03-12T10:22:02.190Z</time>
      </trkpt>
      <trkpt lat="48.06639" lon="6.93529">
        <ele>946.246948</ele>
        <time>2020-03-12T10:22:02.810Z</time>
      </trkpt>
      <trkpt lat="48.06632" lon="6.93527">
        <ele>947.14679</ele>
        <time>2020-03-12T10:22:03.432Z</time>
      </trkpt>
      <trkpt lat="48.06625" lon="6.93529">
        <ele>947.535522</ele>
        <time>2020-03-12T10:22:04.055Z</time>
      </trkpt>
      <trkpt lat="48.06617" lon="6.93535">
        <ele>947.463562</ele>
        <time>2020-03-12T10:22:04.680Z</time>
      </trkpt>
      <trkpt lat="48.06583" lon="6.93544">
        <ele>949.527222</ele>
        <time>2020-03-12T10:22:05.312Z</time>
      </trkpt>
      <trkpt lat="48.06568" lon="6.93543">
        <ele>951.614868</ele>
        <time>2020-03-12T10:22:05.947Z</time>
      </trkpt>
      <trkpt lat="48.06539" lon="6.93534">
        <ele>955.084412</ele>
        <time>2020-03-12T10:22:06.588Z</time>
      </trkpt>
      <trkpt lat="48.06538" lon="6.93532">
        <ele>955.52832</ele>
        <time>2020-03-12T10:22:07.229Z</time>
      </trkpt>
      <trkpt lat="48.06548" lon="6.93527">
        <ele>955.982117</ele>
        <time>2020-03-12T10:22:07.872Z</time>
      </trkpt>
      <trkpt lat="48.06548" lon="6.9351">
        <ele>957.81781</ele>
        <time>2020-03-12T10:22:08.517Z</time>
      </trkpt>
      <trkpt lat="48.0654" lon="6.93494">
        <ele>960.601379</ele>
        <time>2020-03-12T10:22:09.165Z</time>
      </trkpt>
      <trkpt lat="48.06535" lon="6.9349">
        <ele>961.700378</ele>
        <time>2020-03-12T10:22:09.814Z</time>
      </trkpt>
      <trkpt lat="48.06535" lon="6.93485">
        <ele>962.300293</ele>
        <time>2020-03-12T10:22:10.464Z</time>
      </trkpt>
      <trkpt lat="48.06527" lon="6.93467">
        <ele>965.515747</ele>
        <time>2020-03-12T10:22:11.117Z</time>
      </trkpt>
      <trkpt lat="48.06523" lon="6.93463">
        <ele>966.52356</ele>
        <time>2020-03-12T10:22:11.771Z</time>
      </trkpt>
      <trkpt lat="48.06519" lon="6.93449">
        <ele>968.731201</ele>
        <time>2020-03-12T10:22:12.427Z</time>
      </trkpt>
      <trkpt lat="48.06508" lon="6.93454">
        <ele>969.548218</ele>
        <time>2020-03-12T10:22:13.085Z</time>
      </trkpt>
      <trkpt lat="48.06495" lon="6.93439">
        <ele>972.751648</ele>
        <time>2020-03-12T10:22:13.746Z</time>
      </trkpt>
      <trkpt lat="48.06477" lon="6.93432">
        <ele>975.535217</ele>
        <time>2020-03-12T10:22:14.411Z</time>
      </trkpt>
      <trkpt lat="48.06458" lon="6.9343">
        <ele>977.826843</ele>
        <time>2020-03-12T10:22:15.080Z</time>
      </trkpt>
      <trkpt lat="48.06445" lon="6.93434">
        <ele>978.468018</ele>
        <time>2020-03-12T10:22:15.752Z</time>
      </trkpt>
      <trkpt lat="48.06438" lon="6.93433">
        <ele>979.12793</ele>
        <time>2020-03-12T10:22:16.425Z</time>
      </trkpt>
      <trkpt lat="48.06411" lon="6.93423">
        <ele>981.906372</ele>
        <time>2020-03-12T10:22:17.104Z</time>
      </trkpt>
      <trkpt lat="48.06385" lon="6.93403">
        <ele>985.75177</ele>
        <time>2020-03-12T10:22:17.788Z</time>
      </trkpt>
      <trkpt lat="48.06378" lon="6.93391">
        <ele>988.079407</ele>
        <time>2020-03-12T10:22:18.475Z</time>
      </trkpt>
      <trkpt lat="48.06364" lon="6.93353">
        <ele>995.254211</ele>
        <time>2020-03-12T10:22:19.167Z</time>
      </trkpt>
      <trkpt lat="48.06358" lon="6.93319">
        <ele>999.707336</ele>
        <time>2020-03-12T10:22:19.864Z</time>
      </trkpt>
      <trkpt lat="48.06347" lon="6.93295">
        <ele>1002.622864</ele>
        <time>2020-03-12T10:22:20.565Z</time>
      </trkpt>
      <trkpt lat="48.06338" lon="6.93297">
        <ele>1003.507813</ele>
        <time>2020-03-12T10:22:21.268Z</time>
      </trkpt>
      <trkpt lat="48.0634" lon="6.93286">
        <ele>1004.059753</ele>
        <time>2020-03-12T10:22:21.972Z</time>
      </trkpt>
      <trkpt lat="48.06338" lon="6.93287">
        <ele>1004.227722</ele>
        <time>2020-03-12T10:22:22.677Z</time>
      </trkpt>
      <trkpt lat="48.0633" lon="6.93266">
        <ele>1006.69928</ele>
        <time>2020-03-12T10:22:23.385Z</time>
      </trkpt>
      <trkpt lat="48.06324" lon="6.93262">
        <ele>1007.707153</ele>
        <time>2020-03-12T10:22:24.094Z</time>
      </trkpt>
      <trkpt lat="48.06314" lon="6.93247">
        <ele>1009.986755</ele>
        <time>2020-03-12T10:22:24.806Z</time>
      </trkpt>
      <trkpt lat="48.06313" lon="6.93237">
        <ele>1010.911987</ele>
        <time>2020-03-12T10:22:25.520Z</time>
      </trkpt>
      <trkpt lat="48.06306" lon="6.93221">
        <ele>1013.287598</ele>
        <time>2020-03-12T10:22:26.236Z</time>
      </trkpt>
      <trkpt lat="48.06301" lon="6.93185">
        <ele>1017.342957</ele>
        <time>2020-03-12T10:22:26.957Z</time>
      </trkpt>
      <trkpt lat="48.06292" lon="6.93175">
        <ele>1019.382568</ele>
        <time>2020-03-12T10:22:27.680Z</time>
      </trkpt>
      <trkpt lat="48.06293" lon="6.93172">
        <ele>1019.550537</ele>
        <time>2020-03-12T10:22:28.404Z</time>
      </trkpt>
      <trkpt lat="48.06291" lon="6.93173">
        <ele>1019.694519</ele>
        <time>2020-03-12T10:22:29.128Z</time>
      </trkpt>
      <trkpt lat="48.06282" lon="6.93161">
        <ele>1021.926147</ele>
        <time>2020-03-12T10:22:29.855Z</time>
      </trkpt>
      <trkpt lat="48.06274" lon="6.93157">
        <ele>1023.247131</ele>
        <time>2020-03-12T10:22:30.583Z</time>
      </trkpt>
      <trkpt lat="48.06262" lon="6.93143">
        <ele>1024.518921</ele>
        <time>2020-03-12T10:22:31.314Z</time>
      </trkpt>
      <trkpt lat="48.06255" lon="6.9314">
        <ele>1025.322754</ele>
        <time>2020-03-12T10:22:32.047Z</time>
      </trkpt>
      <trkpt lat="48.06245" lon="6.93131">
        <ele>1026.414551</ele>
        <time>2020-03-12T10:22:32.782Z</time>
      </trkpt>
      <trkpt lat="48.06223" lon="6.93127">
        <ele>1028.634277</ele>
        <time>2020-03-12T10:22:33.522Z</time>
      </trkpt>
      <trkpt lat="48.06216" lon="6.93119">
        <ele>1029.43811</ele>
        <time>2020-03-12T10:22:34.263Z</time>
      </trkpt>
      <trkpt lat="48.0621" lon="6.93105">
        <ele>1030.30188</ele>
        <time>2020-03-12T10:22:35.007Z</time>
      </trkpt>
      <trkpt lat="48.06206" lon="6.93083">
        <ele>1030.517944</ele>
        <time>2020-03-12T10:22:35.754Z</time>
      </trkpt>
      <trkpt lat="48.06188" lon="6.93032">
        <ele>1034.074829</ele>
        <time>2020-03-12T10:22:36.508Z</time>
      </trkpt>
      <trkpt lat="48.06179" lon="6.93014">
        <ele>1035.80249</ele>
        <time>2020-03-12T10:22:37.265Z</time>
      </trkpt>
      <trkpt lat="48.06166" lon="6.92999">
        <ele>1038.022949</ele>
        <time>2020-03-12T10:22:38.026Z</time>
      </trkpt>
      <trkpt lat="48.06154" lon="6.9298">
        <ele>1039.028687</ele>
        <time>2020-03-12T10:22:38.790Z</time>
      </trkpt>
      <trkpt lat="48.06112" lon="6.92886">
        <ele>1038.387085</ele>
        <time>2020-03-12T10:22:39.569Z</time>
      </trkpt>
      <trkpt lat="48.06078" lon="6.92844">
        <ele>1041.374878</ele>
        <time>2020-03-12T10:22:40.357Z</time>
      </trkpt>
      <trkpt lat="48.06001" lon="6.92781">
        <ele>1050.797729</ele>
        <time>2020-03-12T10:22:41.163Z</time>
      </trkpt>
      <trkpt lat="48.0599" lon="6.92766">
        <ele>1051.865479</ele>
        <time>2020-03-12T10:22:41.972Z</time>
      </trkpt>
      <trkpt lat="48.05949" lon="6.92693">
        <ele>1058.761963</ele>
        <time>2020-03-12T10:22:42.793Z</time>
      </trkpt>
      <trkpt lat="48.05935" lon="6.92641">
        <ele>1060.856323</ele>
        <time>2020-03-12T10:22:43.622Z</time>
      </trkpt>
      <trkpt lat="48.05936" lon="6.92609">
        <ele>1059.056641</ele>
        <time>2020-03-12T10:22:44.455Z</time>
      </trkpt>
      <trkpt lat="48.05942" lon="6.92567">
        <ele>1055.974365</ele>
        <time>2020-03-12T10:22:45.294Z</time>
      </trkpt>
      <trkpt lat="48.0595" lon="6.92547">
        <ele>1053.958618</ele>
        <time>2020-03-12T10:22:46.136Z</time>
      </trkpt>
      <trkpt lat="48.06005" lon="6.92479">
        <ele>1041.375366</ele>
        <time>2020-03-12T10:22:46.992Z</time>
      </trkpt>
      <trkpt lat="48.06011" lon="6.9246">
        <ele>1040.475952</ele>
        <time>2020-03-12T10:22:47.851Z</time>
      </trkpt>
      <trkpt lat="48.06011" lon="6.92441">
        <ele>1040.931885</ele>
        <time>2020-03-12T10:22:48.713Z</time>
      </trkpt>
      <trkpt lat="48.0601" lon="6.92426">
        <ele>1041.447876</ele>
        <time>2020-03-12T10:22:49.577Z</time>
      </trkpt>
      <trkpt lat="48.06003" lon="6.92406">
        <ele>1043.513672</ele>
        <time>2020-03-12T10:22:50.444Z</time>
      </trkpt>
      <trkpt lat="48.05971" lon="6.92371">
        <ele>1048.636841</ele>
        <time>2020-03-12T10:22:51.319Z</time>
      </trkpt>
      <trkpt lat="48.05941" lon="6.92329">
        <ele>1053.134399</ele>
        <time>2020-03-12T10:22:52.202Z</time>
      </trkpt>
      <trkpt lat="48.05885" lon="6.92274">
        <ele>1058.325562</ele>
        <time>2020-03-12T10:22:53.098Z</time>
      </trkpt>
      <trkpt lat="48.05873" lon="6.92267">
        <ele>1059.549438</ele>
        <time>2020-03-12T10:22:53.997Z</time>
      </trkpt>
      <trkpt lat="48.05849" lon="6.92264">
        <ele>1062.374146</ele>
        <time>2020-03-12T10:22:54.901Z</time>
      </trkpt>
      <trkpt lat="48.0584" lon="6.92265">
        <ele>1062.988403</ele>
        <time>2020-03-12T10:22:55.807Z</time>
      </trkpt>
      <trkpt lat="48.05832" lon="6.92269">
        <ele>1062.604492</ele>
        <time>2020-03-12T10:22:56.714Z</time>
      </trkpt>
      <trkpt lat="48.05811" lon="6.92269">
        <ele>1061.092773</ele>
        <time>2020-03-12T10:22:57.626Z</time>
      </trkpt>
      <trkpt lat="48.05807" lon="6.92266">
        <ele>1060.660767</ele>
        <time>2020-03-12T10:22:58.538Z</time>
      </trkpt>
      <trkpt lat="48.05808" lon="6.92258">
        <ele>1060.348877</ele>
        <time>2020-03-12T10:22:59.452Z</time>
      </trkpt>
      <trkpt lat="48.05844" lon="6.9217">
        <ele>1055.897339</ele>
        <time>2020-03-12T10:23:00.379Z</time>
      </trkpt>
      <trkpt lat="48.05847" lon="6.92154">
        <ele>1054.438721</ele>
        <time>2020-03-12T10:23:01.309Z</time>
      </trkpt>
      <trkpt lat="48.05869" lon="6.92091">
        <ele>1049.195313</ele>
        <time>2020-03-12T10:23:02.248Z</time>
      </trkpt>
      <trkpt lat="48.05876" lon="6.92056">
        <ele>1047.189209</ele>
        <time>2020-03-12T10:23:03.192Z</time>
      </trkpt>
      <trkpt lat="48.05895" lon="6.91997">
        <ele>1043.881592</ele>
        <time>2020-03-12T10:23:04.145Z</time>
      </trkpt>
      <trkpt lat="48.05922" lon="6.91944">
        <ele>1039.829956</ele>
        <time>2020-03-12T10:23:05.107Z</time>
      </trkpt>
      <trkpt lat="48.05958" lon="6.91882">
        <ele>1035.965454</ele>
        <time>2020-03-12T10:23:06.080Z</time>
      </trkpt>
      <trkpt lat="48.0601" lon="6.91832">
        <ele>1032.262573</ele>
        <time>2020-03-12T10:23:07.065Z</time>
      </trkpt>
      <trkpt lat="48.06032" lon="6.91817">
        <ele>1030.786133</ele>
        <time>2020-03-12T10:23:08.055Z</time>
      </trkpt>
      <trkpt lat="48.06054" lon="6.91795">
        <ele>1028.674561</ele>
        <time>2020-03-12T10:23:09.050Z</time>
      </trkpt>
      <trkpt lat="48.06068" lon="6.91775">
        <ele>1027.832397</ele>
        <time>2020-03-12T10:23:10.049Z</time>
      </trkpt>
      <trkpt lat="48.06068" lon="6.91771">
        <ele>1027.73645</ele>
        <time>2020-03-12T10:23:11.049Z</time>
      </trkpt>
      <trkpt lat="48.06064" lon="6.91768">
        <ele>1027.664429</ele>
        <time>2020-03-12T10:23:12.050Z</time>
      </trkpt>
      <trkpt lat="48.05996" lon="6.91767">
        <ele>1028.280396</ele>
        <time>2020-03-12T10:23:13.064Z</time>
      </trkpt>
      <trkpt lat="48.0595" lon="6.91758">
        <ele>1026.636719</ele>
        <time>2020-03-12T10:23:14.088Z</time>
      </trkpt>
      <trkpt lat="48.05927" lon="6.91756">
        <ele>1026.670898</ele>
        <time>2020-03-12T10:23:15.116Z</time>
      </trkpt>
      <trkpt lat="48.05873" lon="6.91737">
        <ele>1030.249146</ele>
        <time>2020-03-12T10:23:16.155Z</time>
      </trkpt>
      <trkpt lat="48.05843" lon="6.91723">
        <ele>1031.4729</ele>
        <time>2020-03-12T10:23:17.201Z</time>
      </trkpt>
      <trkpt lat="48.05802" lon="6.91699">
        <ele>1036.348877</ele>
        <time>2020-03-12T10:23:18.255Z</time>
      </trkpt>
      <trkpt lat="48.05785" lon="6.91695">
        <ele>1038.498535</ele>
        <time>2020-03-12T10:23:19.313Z</time>
      </trkpt>
      <trkpt lat="48.05764" lon="6.91694">
        <ele>1041.43811</ele>
        <time>2020-03-12T10:23:20.375Z</time>
      </trkpt>
      <trkpt lat="48.05715" lon="6.9168">
        <ele>1040.934937</ele>
        <time>2020-03-12T10:23:21.447Z</time>
      </trkpt>
      <trkpt lat="48.0571" lon="6.9168">
        <ele>1040.934937</ele>
        <time>2020-03-12T10:23:22.520Z</time>
      </trkpt>
      <trkpt lat="48.05701" lon="6.91685">
        <ele>1041.173706</ele>
        <time>2020-03-12T10:23:23.595Z</time>
      </trkpt>
      <trkpt lat="48.0569" lon="6.917">
        <ele>1040.873779</ele>
        <time>2020-03-12T10:23:24.673Z</time>
      </trkpt>
      <trkpt lat="48.05677" lon="6.91737">
        <ele>1040.981812</ele>
        <time>2020-03-12T10:23:25.756Z</time>
      </trkpt>
      <trkpt lat="48.05671" lon="6.91772">
        <ele>1041.624512</ele>
        <time>2020-03-12T10:23:26.844Z</time>
      </trkpt>
      <trkpt lat="48.0567" lon="6.91831">
        <ele>1044.155273</ele>
        <time>2020-03-12T10:23:27.940Z</time>
      </trkpt>
      <trkpt lat="48.05675" lon="6.91861">
        <ele>1045.295044</ele>
        <time>2020-03-12T10:23:29.040Z</time>
      </trkpt>
      <trkpt lat="48.05675" lon="6.91895">
        <ele>1045.703003</ele>
        <time>2020-03-12T10:23:30.145Z</time>
      </trkpt>
      <trkpt lat="48.05662" lon="6.91961">
        <ele>1043.506958</ele>
        <time>2020-03-12T10:23:31.259Z</time>
      </trkpt>
      <trkpt lat="48.05664" lon="6.92006">
        <ele>1043.043213</ele>
        <time>2020-03-12T10:23:32.379Z</time>
      </trkpt>
      <trkpt lat="48.05663" lon="6.92064">
        <ele>1041.716431</ele>
        <time>2020-03-12T10:23:33.507Z</time>
      </trkpt>
      <trkpt lat="48.05677" lon="6.92112">
        <ele>1043.073364</ele>
        <time>2020-03-12T10:23:34.642Z</time>
      </trkpt>
      <trkpt lat="48.05683" lon="6.92148">
        <ele>1043.505249</ele>
        <time>2020-03-12T10:23:35.782Z</time>
      </trkpt>
      <trkpt lat="48.05686" lon="6.92191">
        <ele>1045.711426</ele>
        <time>2020-03-12T10:23:36.928Z</time>
      </trkpt>
      <trkpt lat="48.05684" lon="6.92206">
        <ele>1046.215454</ele>
        <time>2020-03-12T10:23:38.076Z</time>
      </trkpt>
      <trkpt lat="48.05672" lon="6.92259">
        <ele>1048.818237</ele>
        <time>2020-03-12T10:23:39.231Z</time>
      </trkpt>
      <trkpt lat="48.05662" lon="6.9228">
        <ele>1050.605957</ele>
        <time>2020-03-12T10:23:40.390Z</time>
      </trkpt>
      <trkpt lat="48.05654" lon="6.92308">
        <ele>1052.946045</ele>
        <time>2020-03-12T10:23:41.553Z</time>
      </trkpt>
      <trkpt lat="48.05639" lon="6.92343">
        <ele>1053.374756</ele>
        <time>2020-03-12T10:23:42.721Z</time>
      </trkpt>
      <trkpt lat="48.05637" lon="6.92352">
        <ele>1053.621948</ele>
        <time>2020-03-12T10:23:43.891Z</time>
      </trkpt>
      <trkpt lat="48.05637" lon="6.92353">
        <ele>1053.66272</ele>
        <time>2020-03-12T10:23:45.061Z</time>
      </trkpt>
      <trkpt lat="48.05635" lon="6.9243">
        <ele>1057.224365</ele>
        <time>2020-03-12T10:23:46.241Z</time>
      </trkpt>
      <trkpt lat="48.0563" lon="6.92456">
        <ele>1058.279053</ele>
        <time>2020-03-12T10:23:47.425Z</time>
      </trkpt>
      <trkpt lat="48.05617" lon="6.92477">
        <ele>1057.591675</ele>
        <time>2020-03-12T10:23:48.613Z</time>
      </trkpt>
      <trkpt lat="48.05632" lon="6.92603">
        <ele>1073.777344</ele>
        <time>2020-03-12T10:23:49.818Z</time>
      </trkpt>
      <trkpt lat="48.05632" lon="6.92603">
        <ele>1073.7771</ele>
        <time>2020-03-12T10:23:51.023Z</time>
      </trkpt>
      <trkpt lat="48.0563" lon="6.926">
        <ele>1073.143799</ele>
        <time>2020-03-12T10:23:52.228Z</time>
      </trkpt>
      <trkpt lat="48.05603" lon="6.92641">
        <ele>1073.715698</ele>
        <time>2020-03-12T10:23:53.441Z</time>
      </trkpt>
      <trkpt lat="48.05558" lon="6.92733">
        <ele>1073.757324</ele>
        <time>2020-03-12T10:23:54.669Z</time>
      </trkpt>
      <trkpt lat="48.05541" lon="6.92767">
        <ele>1074.584839</ele>
        <time>2020-03-12T10:23:55.903Z</time>
      </trkpt>
      <trkpt lat="48.05507" lon="6.92829">
        <ele>1077.234253</ele>
        <time>2020-03-12T10:23:57.148Z</time>
      </trkpt>
      <trkpt lat="48.05486" lon="6.92854">
        <ele>1077.639771</ele>
        <time>2020-03-12T10:23:58.398Z</time>
      </trkpt>
      <trkpt lat="48.05473" lon="6.92873">
        <ele>1077.795532</ele>
        <time>2020-03-12T10:23:59.652Z</time>
      </trkpt>
      <trkpt lat="48.05471" lon="6.92878">
        <ele>1077.485962</ele>
        <time>2020-03-12T10:24:00.907Z</time>
      </trkpt>
      <trkpt lat="48.05473" lon="6.92873">
        <ele>1077.794067</ele>
        <time>2020-03-12T10:24:02.162Z</time>
      </trkpt>
      <trkpt lat="48.05394" lon="6.92799">
        <ele>1066.116577</ele>
        <time>2020-03-12T10:24:03.436Z</time>
      </trkpt>
      <trkpt lat="48.05358" lon="6.9275">
        <ele>1060.568604</ele>
        <time>2020-03-12T10:24:04.720Z</time>
      </trkpt>
      <trkpt lat="48.05436" lon="6.92669">
        <ele>1054.83667</ele>
        <time>2020-03-12T10:24:06.023Z</time>
      </trkpt>
      <trkpt lat="48.05452" lon="6.92623">
        <ele>1053.213013</ele>
        <time>2020-03-12T10:24:07.333Z</time>
      </trkpt>
      <trkpt lat="48.05489" lon="6.92594">
        <ele>1052.237549</ele>
        <time>2020-03-12T10:24:08.651Z</time>
      </trkpt>
      <trkpt lat="48.05489" lon="6.92594">
        <ele>1052.237061</ele>
        <time>2020-03-12T10:24:09.969Z</time>
      </trkpt>
      <trkpt lat="48.05512" lon="6.92576">
        <ele>1051.768188</ele>
        <time>2020-03-12T10:24:11.292Z</time>
      </trkpt>
      <trkpt lat="48.05507" lon="6.92568">
        <ele>1050.875977</ele>
        <time>2020-03-12T10:24:12.617Z</time>
      </trkpt>
      <trkpt lat="48.05507" lon="6.92562">
        <ele>1050.808105</ele>
        <time>2020-03-12T10:24:13.943Z</time>
      </trkpt>
      <trkpt lat="48.05506" lon="6.92562">
        <ele>1050.774048</ele>
        <time>2020-03-12T10:24:15.269Z</time>
      </trkpt>
      <trkpt lat="48.0551" lon="6.92541">
        <ele>1050.718018</ele>
        <time>2020-03-12T10:24:16.598Z</time>
      </trkpt>
      <trkpt lat="48.05506" lon="6.92521">
        <ele>1050.287842</ele>
        <time>2020-03-12T10:24:17.930Z</time>
      </trkpt>
      <trkpt lat="48.055" lon="6.92514">
        <ele>1050.059937</ele>
        <time>2020-03-12T10:24:19.263Z</time>
      </trkpt>
      <trkpt lat="48.05469" lon="6.92516">
        <ele>1049.340088</ele>
        <time>2020-03-12T10:24:20.602Z</time>
      </trkpt>
      <trkpt lat="48.05441" lon="6.92527">
        <ele>1049.574219</ele>
        <time>2020-03-12T10:24:21.947Z</time>
      </trkpt>
      <trkpt lat="48.05415" lon="6.92532">
        <ele>1050.126099</ele>
        <time>2020-03-12T10:24:23.297Z</time>
      </trkpt>
      <trkpt lat="48.05401" lon="6.9253">
        <ele>1050.19812</ele>
        <time>2020-03-12T10:24:24.650Z</time>
      </trkpt>
      <trkpt lat="48.05345" lon="6.9253">
        <ele>1050.869995</ele>
        <time>2020-03-12T10:24:26.014Z</time>
      </trkpt>
      <trkpt lat="48.05322" lon="6.9252">
        <ele>1051.407227</ele>
        <time>2020-03-12T10:24:27.383Z</time>
      </trkpt>
      <trkpt lat="48.05286" lon="6.92491">
        <ele>1051.743164</ele>
        <time>2020-03-12T10:24:28.760Z</time>
      </trkpt>
      <trkpt lat="48.05263" lon="6.92484">
        <ele>1052.588257</ele>
        <time>2020-03-12T10:24:30.142Z</time>
      </trkpt>
      <trkpt lat="48.05257" lon="6.92479">
        <ele>1052.669312</ele>
        <time>2020-03-12T10:24:31.526Z</time>
      </trkpt>
      <trkpt lat="48.05214" lon="6.92463">
        <ele>1053.427368</ele>
        <time>2020-03-12T10:24:32.918Z</time>
      </trkpt>
      <trkpt lat="48.05195" lon="6.92451">
        <ele>1053.595337</ele>
        <time>2020-03-12T10:24:34.315Z</time>
      </trkpt>
      <trkpt lat="48.05189" lon="6.92449">
        <ele>1053.691406</ele>
        <time>2020-03-12T10:24:35.713Z</time>
      </trkpt>
      <trkpt lat="48.05153" lon="6.92458">
        <ele>1056.144775</ele>
        <time>2020-03-12T10:24:37.118Z</time>
      </trkpt>
      <trkpt lat="48.051" lon="6.92441">
        <ele>1059.553101</ele>
        <time>2020-03-12T10:24:38.534Z</time>
      </trkpt>
      <trkpt lat="48.05074" lon="6.92423">
        <ele>1061.112793</ele>
        <time>2020-03-12T10:24:39.956Z</time>
      </trkpt>
      <trkpt lat="48.05063" lon="6.92419">
        <ele>1061.772705</ele>
        <time>2020-03-12T10:24:41.380Z</time>
      </trkpt>
      <trkpt lat="48.05042" lon="6.92403">
        <ele>1062.787354</ele>
        <time>2020-03-12T10:24:42.809Z</time>
      </trkpt>
      <trkpt lat="48.05021" lon="6.92373">
        <ele>1062.247437</ele>
        <time>2020-03-12T10:24:44.243Z</time>
      </trkpt>
      <trkpt lat="48.04991" lon="6.92343">
        <ele>1062.029053</ele>
        <time>2020-03-12T10:24:45.685Z</time>
      </trkpt>
      <trkpt lat="48.04968" lon="6.92312">
        <ele>1061.695679</ele>
        <time>2020-03-12T10:24:47.133Z</time>
      </trkpt>
      <trkpt lat="48.0494" lon="6.92286">
        <ele>1062.415649</ele>
        <time>2020-03-12T10:24:48.587Z</time>
      </trkpt>
      <trkpt lat="48.04888" lon="6.92188">
        <ele>1062.385132</ele>
        <time>2020-03-12T10:24:50.058Z</time>
      </trkpt>
      <trkpt lat="48.04874" lon="6.92165">
        <ele>1062.397217</ele>
        <time>2020-03-12T10:24:51.533Z</time>
      </trkpt>
      <trkpt lat="48.04865" lon="6.92157">
        <ele>1062.651245</ele>
        <time>2020-03-12T10:24:53.011Z</time>
      </trkpt>
      <trkpt lat="48.04823" lon="6.9206">
        <ele>1067.325684</ele>
        <time>2020-03-12T10:24:54.504Z</time>
      </trkpt>
      <trkpt lat="48.04812" lon="6.92024">
        <ele>1071.181274</ele>
        <time>2020-03-12T10:24:56.002Z</time>
      </trkpt>
      <trkpt lat="48.04804" lon="6.92008">
        <ele>1072.909058</ele>
        <time>2020-03-12T10:24:57.503Z</time>
      </trkpt>
      <trkpt lat="48.04802" lon="6.91991">
        <ele>1073.808838</ele>
        <time>2020-03-12T10:24:59.006Z</time>
      </trkpt>
      <trkpt lat="48.04794" lon="6.91973">
        <ele>1077.065796</ele>
        <time>2020-03-12T10:25:00.512Z</time>
      </trkpt>
      <trkpt lat="48.04785" lon="6.91942">
        <ele>1082.080933</ele>
        <time>2020-03-12T10:25:02.023Z</time>
      </trkpt>
      <trkpt lat="48.04781" lon="6.91936">
        <ele>1083.376709</ele>
        <time>2020-03-12T10:25:03.535Z</time>
      </trkpt>
      <trkpt lat="48.04777" lon="6.919">
        <ele>1086.093506</ele>
        <time>2020-03-12T10:25:05.052Z</time>
      </trkpt>
      <trkpt lat="48.04778" lon="6.91867">
        <ele>1088.613159</ele>
        <time>2020-03-12T10:25:06.573Z</time>
      </trkpt>
      <trkpt lat="48.04773" lon="6.91855">
        <ele>1090.880737</ele>
        <time>2020-03-12T10:25:08.096Z</time>
      </trkpt>
      <trkpt lat="48.04769" lon="6.91855">
        <ele>1091.88855</ele>
        <time>2020-03-12T10:25:09.620Z</time>
      </trkpt>
      <trkpt lat="48.04747" lon="6.91877">
        <ele>1095.000366</ele>
        <time>2020-03-12T10:25:11.149Z</time>
      </trkpt>
      <trkpt lat="48.04737" lon="6.91884">
        <ele>1096.452148</ele>
        <time>2020-03-12T10:25:12.680Z</time>
      </trkpt>
      <trkpt lat="48.04726" lon="6.91897">
        <ele>1097.603882</ele>
        <time>2020-03-12T10:25:14.214Z</time>
      </trkpt>
      <trkpt lat="48.04721" lon="6.91916">
        <ele>1096.704102</ele>
        <time>2020-03-12T10:25:15.751Z</time>
      </trkpt>
      <trkpt lat="48.04715" lon="6.91918">
        <ele>1097.687988</ele>
        <time>2020-03-12T10:25:17.289Z</time>
      </trkpt>
      <trkpt lat="48.047" lon="6.91932">
        <ele>1098.931519</ele>
        <time>2020-03-12T10:25:18.831Z</time>
      </trkpt>
      <trkpt lat="48.04692" lon="6.91935">
        <ele>1098.355591</ele>
        <time>2020-03-12T10:25:20.374Z</time>
      </trkpt>
      <trkpt lat="48.0466" lon="6.91942">
        <ele>1098.630249</ele>
        <time>2020-03-12T10:25:21.924Z</time>
      </trkpt>
      <trkpt lat="48.04654" lon="6.91936">
        <ele>1101.005859</ele>
        <time>2020-03-12T10:25:23.475Z</time>
      </trkpt>
      <trkpt lat="48.04648" lon="6.91934">
        <ele>1102.229614</ele>
        <time>2020-03-12T10:25:25.028Z</time>
      </trkpt>
      <trkpt lat="48.04637" lon="6.91934">
        <ele>1103.417358</ele>
        <time>2020-03-12T10:25:26.583Z</time>
      </trkpt>
      <trkpt lat="48.04614" lon="6.91928">
        <ele>1107.628662</ele>
        <time>2020-03-12T10:25:28.142Z</time>
      </trkpt>
      <trkpt lat="48.04555" lon="6.91941">
        <ele>1105.92749</ele>
        <time>2020-03-12T10:25:29.713Z</time>
      </trkpt>
      <trkpt lat="48.04541" lon="6.9194">
        <ele>1106.914795</ele>
        <time>2020-03-12T10:25:31.287Z</time>
      </trkpt>
      <trkpt lat="48.04533" lon="6.91944">
        <ele>1107.442627</ele>
        <time>2020-03-12T10:25:32.863Z</time>
      </trkpt>
      <trkpt lat="48.04502" lon="6.91937">
        <ele>1112.283691</ele>
        <time>2020-03-12T10:25:34.445Z</time>
      </trkpt>
      <trkpt lat="48.04489" lon="6.91918">
        <ele>1115.067261</ele>
        <time>2020-03-12T10:25:36.031Z</time>
      </trkpt>
      <trkpt lat="48.04472" lon="6.91906">
        <ele>1115.894531</ele>
        <time>2020-03-12T10:25:37.621Z</time>
      </trkpt>
      <trkpt lat="48.04458" lon="6.91904">
        <ele>1114.742676</ele>
        <time>2020-03-12T10:25:39.213Z</time>
      </trkpt>
      <trkpt lat="48.04438" lon="6.91909">
        <ele>1112.619629</ele>
        <time>2020-03-12T10:25:40.809Z</time>
      </trkpt>
      <trkpt lat="48.04434" lon="6.91912">
        <ele>1111.671753</ele>
        <time>2020-03-12T10:25:42.406Z</time>
      </trkpt>
      <trkpt lat="48.04427" lon="6.91912">
        <ele>1111.490967</ele>
        <time>2020-03-12T10:25:44.005Z</time>
      </trkpt>
      <trkpt lat="48.04404" lon="6.91904">
        <ele>1108.748169</ele>
        <time>2020-03-12T10:25:45.608Z</time>
      </trkpt>
      <trkpt lat="48.044" lon="6.91892">
        <ele>1108.700195</ele>
        <time>2020-03-12T10:25:47.213Z</time>
      </trkpt>
      <trkpt lat="48.04397" lon="6.9189">
        <ele>1108.328247</ele>
        <time>2020-03-12T10:25:48.819Z</time>
      </trkpt>
      <trkpt lat="48.04393" lon="6.91889">
        <ele>1107.752319</ele>
        <time>2020-03-12T10:25:50.426Z</time>
      </trkpt>
      <trkpt lat="48.04377" lon="6.91894">
        <ele>1105.016846</ele>
        <time>2020-03-12T10:25:52.036Z</time>
      </trkpt>
      <trkpt lat="48.04366" lon="6.9189">
        <ele>1103.493042</ele>
        <time>2020-03-12T10:25:53.648Z</time>
      </trkpt>
      <trkpt lat="48.04339" lon="6.91886">
        <ele>1099.555908</ele>
        <time>2020-03-12T10:25:55.266Z</time>
      </trkpt>
      <trkpt lat="48.04336" lon="6.91883">
        <ele>1099.303955</ele>
        <time>2020-03-12T10:25:56.884Z</time>
      </trkpt>
      <trkpt lat="48.04329" lon="6.91886">
        <ele>1098.236206</ele>
        <time>2020-03-12T10:25:58.504Z</time>
      </trkpt>
      <trkpt lat="48.04324" lon="6.91885">
        <ele>1097.624268</ele>
        <time>2020-03-12T10:26:00.125Z</time>
      </trkpt>
      <trkpt lat="48.04289" lon="6.91873">
        <ele>1092.648804</ele>
        <time>2020-03-12T10:26:01.753Z</time>
      </trkpt>
      <trkpt lat="48.04275" lon="6.91872">
        <ele>1090.22522</ele>
        <time>2020-03-12T10:26:03.384Z</time>
      </trkpt>
      <trkpt lat="48.0423" lon="6.91855">
        <ele>1083.409424</ele>
        <time>2020-03-12T10:26:05.024Z</time>
      </trkpt>
      <trkpt lat="48.04214" lon="6.91816">
        <ele>1084.173218</ele>
        <time>2020-03-12T10:26:06.670Z</time>
      </trkpt>
      <trkpt lat="48.04211" lon="6.91801">
        <ele>1085.217041</ele>
        <time>2020-03-12T10:26:08.318Z</time>
      </trkpt>
      <trkpt lat="48.04211" lon="6.91779">
        <ele>1087.592651</ele>
        <time>2020-03-12T10:26:09.969Z</time>
      </trkpt>
      <trkpt lat="48.04226" lon="6.91704">
        <ele>1089.92749</ele>
        <time>2020-03-12T10:26:11.631Z</time>
      </trkpt>
      <trkpt lat="48.04223" lon="6.91667">
        <ele>1086.232056</ele>
        <time>2020-03-12T10:26:13.298Z</time>
      </trkpt>
      <trkpt lat="48.04214" lon="6.91643">
        <ele>1083.328979</ele>
        <time>2020-03-12T10:26:14.969Z</time>
      </trkpt>
      <trkpt lat="48.04231" lon="6.91641">
        <ele>1083.928955</ele>
        <time>2020-03-12T10:26:16.643Z</time>
      </trkpt>
      <trkpt lat="48.0423" lon="6.91644">
        <ele>1084.204834</ele>
        <time>2020-03-12T10:26:18.317Z</time>
      </trkpt>
      <trkpt lat="48.04221" lon="6.91641">
        <ele>1083.448975</ele>
        <time>2020-03-12T10:26:19.993Z</time>
      </trkpt>
      <trkpt lat="48.04211" lon="6.9162">
        <ele>1080.701416</ele>
        <time>2020-03-12T10:26:21.673Z</time>
      </trkpt>
      <trkpt lat="48.0421" lon="6.91601">
        <ele>1078.932129</ele>
        <time>2020-03-12T10:26:23.355Z</time>
      </trkpt>
      <trkpt lat="48.04202" lon="6.9156">
        <ele>1075.541382</ele>
        <time>2020-03-12T10:26:25.043Z</time>
      </trkpt>
      <trkpt lat="48.04195" lon="6.91539">
        <ele>1073.357788</ele>
        <time>2020-03-12T10:26:26.734Z</time>
      </trkpt>
      <trkpt lat="48.04191" lon="6.91497">
        <ele>1070.052734</ele>
        <time>2020-03-12T10:26:28.431Z</time>
      </trkpt>
      <trkpt lat="48.04185" lon="6.91473">
        <ele>1068.379395</ele>
        <time>2020-03-12T10:26:30.131Z</time>
      </trkpt>
      <trkpt lat="48.0418" lon="6.91376">
        <ele>1063.081543</ele>
        <time>2020-03-12T10:26:31.844Z</time>
      </trkpt>
      <trkpt lat="48.04173" lon="6.91361">
        <ele>1061.366699</ele>
        <time>2020-03-12T10:26:33.560Z</time>
      </trkpt>
      <trkpt lat="48.04162" lon="6.91348">
        <ele>1059.111084</ele>
        <time>2020-03-12T10:26:35.279Z</time>
      </trkpt>
      <trkpt lat="48.04153" lon="6.91342">
        <ele>1057.599365</ele>
        <time>2020-03-12T10:26:37.000Z</time>
      </trkpt>
      <trkpt lat="48.04145" lon="6.91342">
        <ele>1056.639526</ele>
        <time>2020-03-12T10:26:38.722Z</time>
      </trkpt>
      <trkpt lat="48.0414" lon="6.9135">
        <ele>1056.615479</ele>
        <time>2020-03-12T10:26:40.446Z</time>
      </trkpt>
      <trkpt lat="48.04128" lon="6.91382">
        <ele>1057.205688</ele>
        <time>2020-03-12T10:26:42.175Z</time>
      </trkpt>
      <trkpt lat="48.04115" lon="6.91456">
        <ele>1059.06897</ele>
        <time>2020-03-12T10:26:43.914Z</time>
      </trkpt>
      <trkpt lat="48.04102" lon="6.91507">
        <ele>1060.443726</ele>
        <time>2020-03-12T10:26:45.660Z</time>
      </trkpt>
      <trkpt lat="48.04086" lon="6.91532">
        <ele>1061.428345</ele>
        <time>2020-03-12T10:26:47.411Z</time>
      </trkpt>
      <trkpt lat="48.04069" lon="6.9155">
        <ele>1062.736206</ele>
        <time>2020-03-12T10:26:49.166Z</time>
      </trkpt>
      <trkpt lat="48.04047" lon="6.91565">
        <ele>1062.849731</ele>
        <time>2020-03-12T10:26:50.926Z</time>
      </trkpt>
      <trkpt lat="48.04028" lon="6.91584">
        <ele>1063.056396</ele>
        <time>2020-03-12T10:26:52.690Z</time>
      </trkpt>
      <trkpt lat="48.04001" lon="6.91603">
        <ele>1060.90918</ele>
        <time>2020-03-12T10:26:54.460Z</time>
      </trkpt>
      <trkpt lat="48.0396" lon="6.91599">
        <ele>1059.037476</ele>
        <time>2020-03-12T10:26:56.239Z</time>
      </trkpt>
      <trkpt lat="48.0395" lon="6.9159">
        <ele>1058.77356</ele>
        <time>2020-03-12T10:26:58.020Z</time>
      </trkpt>
      <trkpt lat="48.0391" lon="6.91583">
        <ele>1053.825073</ele>
        <time>2020-03-12T10:26:59.809Z</time>
      </trkpt>
      <trkpt lat="48.0388" lon="6.91565">
        <ele>1051.224243</ele>
        <time>2020-03-12T10:27:01.604Z</time>
      </trkpt>
      <trkpt lat="48.03853" lon="6.91529">
        <ele>1052.412109</ele>
        <time>2020-03-12T10:27:03.407Z</time>
      </trkpt>
      <trkpt lat="48.03838" lon="6.91498">
        <ele>1054.190308</ele>
        <time>2020-03-12T10:27:05.215Z</time>
      </trkpt>
      <trkpt lat="48.03821" lon="6.91418">
        <ele>1059.170166</ele>
        <time>2020-03-12T10:27:07.034Z</time>
      </trkpt>
      <trkpt lat="48.03808" lon="6.91396">
        <ele>1058.769409</ele>
        <time>2020-03-12T10:27:08.857Z</time>
      </trkpt>
      <trkpt lat="48.0379" lon="6.91382">
        <ele>1056.369873</ele>
        <time>2020-03-12T10:27:10.684Z</time>
      </trkpt>
      <trkpt lat="48.0379" lon="6.91378">
        <ele>1057.041748</ele>
        <time>2020-03-12T10:27:12.512Z</time>
      </trkpt>
      <trkpt lat="48.03798" lon="6.91371">
        <ele>1060.329224</ele>
        <time>2020-03-12T10:27:14.341Z</time>
      </trkpt>
      <trkpt lat="48.03797" lon="6.91357">
        <ele>1061.373291</ele>
        <time>2020-03-12T10:27:16.172Z</time>
      </trkpt>
      <trkpt lat="48.0379" lon="6.91346">
        <ele>1060.461426</ele>
        <time>2020-03-12T10:27:18.005Z</time>
      </trkpt>
      <trkpt lat="48.03775" lon="6.9131">
        <ele>1059.553101</ele>
        <time>2020-03-12T10:27:19.844Z</time>
      </trkpt>
      <trkpt lat="48.0376" lon="6.91294">
        <ele>1060.165039</ele>
        <time>2020-03-12T10:27:21.687Z</time>
      </trkpt>
      <trkpt lat="48.03748" lon="6.91272">
        <ele>1060.525391</ele>
        <time>2020-03-12T10:27:23.534Z</time>
      </trkpt>
      <trkpt lat="48.03746" lon="6.91257">
        <ele>1061.389282</ele>
        <time>2020-03-12T10:27:25.383Z</time>
      </trkpt>
      <trkpt lat="48.03753" lon="6.91237">
        <ele>1063.933105</ele>
        <time>2020-03-12T10:27:27.235Z</time>
      </trkpt>
      <trkpt lat="48.03753" lon="6.91202">
        <ele>1064.431519</ele>
        <time>2020-03-12T10:27:29.091Z</time>
      </trkpt>
      <trkpt lat="48.03759" lon="6.91189">
        <ele>1063.999634</ele>
        <time>2020-03-12T10:27:30.949Z</time>
      </trkpt>
      <trkpt lat="48.0376" lon="6.91176">
        <ele>1063.927612</ele>
        <time>2020-03-12T10:27:32.809Z</time>
      </trkpt>
      <trkpt lat="48.03756" lon="6.91154">
        <ele>1064.215576</ele>
        <time>2020-03-12T10:27:34.672Z</time>
      </trkpt>
      <trkpt lat="48.03739" lon="6.91126">
        <ele>1064.525269</ele>
        <time>2020-03-12T10:27:36.540Z</time>
      </trkpt>
      <trkpt lat="48.03712" lon="6.91094">
        <ele>1066.049072</ele>
        <time>2020-03-12T10:27:38.415Z</time>
      </trkpt>
      <trkpt lat="48.0368" lon="6.91073">
        <ele>1069.231934</ele>
        <time>2020-03-12T10:27:40.297Z</time>
      </trkpt>
      <trkpt lat="48.03655" lon="6.91052">
        <ele>1066.631104</ele>
        <time>2020-03-12T10:27:42.185Z</time>
      </trkpt>
      <trkpt lat="48.03629" lon="6.91039">
        <ele>1064.177979</ele>
        <time>2020-03-12T10:27:44.079Z</time>
      </trkpt>
      <trkpt lat="48.03598" lon="6.91041">
        <ele>1063.302124</ele>
        <time>2020-03-12T10:27:45.979Z</time>
      </trkpt>
      <trkpt lat="48.03585" lon="6.91045">
        <ele>1063.576904</ele>
        <time>2020-03-12T10:27:47.881Z</time>
      </trkpt>
      <trkpt lat="48.03553" lon="6.91071">
        <ele>1061.843628</ele>
        <time>2020-03-12T10:27:49.791Z</time>
      </trkpt>
      <trkpt lat="48.03544" lon="6.9108">
        <ele>1060.15979</ele>
        <time>2020-03-12T10:27:51.703Z</time>
      </trkpt>
      <trkpt lat="48.03543" lon="6.91084">
        <ele>1059.739746</ele>
        <time>2020-03-12T10:27:53.615Z</time>
      </trkpt>
      <trkpt lat="48.03533" lon="6.91087">
        <ele>1058.204102</ele>
        <time>2020-03-12T10:27:55.529Z</time>
      </trkpt>
      <trkpt lat="48.03525" lon="6.91066">
        <ele>1058.208252</ele>
        <time>2020-03-12T10:27:57.447Z</time>
      </trkpt>
      <trkpt lat="48.03516" lon="6.91059">
        <ele>1057.10437</ele>
        <time>2020-03-12T10:27:59.367Z</time>
      </trkpt>
      <trkpt lat="48.0349" lon="6.9105">
        <ele>1055.145386</ele>
        <time>2020-03-12T10:28:01.292Z</time>
      </trkpt>
      <trkpt lat="48.03474" lon="6.91033">
        <ele>1054.389404</ele>
        <time>2020-03-12T10:28:03.221Z</time>
      </trkpt>
      <trkpt lat="48.03453" lon="6.91003">
        <ele>1053.489624</ele>
        <time>2020-03-12T10:28:05.156Z</time>
      </trkpt>
      <trkpt lat="48.03437" lon="6.90969">
        <ele>1053.446045</ele>
        <time>2020-03-12T10:28:07.096Z</time>
      </trkpt>
      <trkpt lat="48.03425" lon="6.90934">
        <ele>1053.913208</ele>
        <time>2020-03-12T10:28:09.042Z</time>
      </trkpt>
      <trkpt lat="48.03426" lon="6.90918">
        <ele>1054.621826</ele>
        <time>2020-03-12T10:28:10.990Z</time>
      </trkpt>
      <trkpt lat="48.03417" lon="6.90897">
        <ele>1054.011719</ele>
        <time>2020-03-12T10:28:12.941Z</time>
      </trkpt>
      <trkpt lat="48.03408" lon="6.90854">
        <ele>1054.155762</ele>
        <time>2020-03-12T10:28:14.898Z</time>
      </trkpt>
      <trkpt lat="48.03408" lon="6.90841">
        <ele>1054.623657</ele>
        <time>2020-03-12T10:28:16.857Z</time>
      </trkpt>
      <trkpt lat="48.03402" lon="6.90817">
        <ele>1054.785278</ele>
        <time>2020-03-12T10:28:18.819Z</time>
      </trkpt>
      <trkpt lat="48.03401" lon="6.90787">
        <ele>1056.07605</ele>
        <time>2020-03-12T10:28:20.785Z</time>
      </trkpt>
      <trkpt lat="48.03405" lon="6.90758">
        <ele>1056.807861</ele>
        <time>2020-03-12T10:28:22.755Z</time>
      </trkpt>
      <trkpt lat="48.03453" lon="6.90696">
        <ele>1060.661987</ele>
        <time>2020-03-12T10:28:24.738Z</time>
      </trkpt>
      <trkpt lat="48.03462" lon="6.90692">
        <ele>1060.606567</ele>
        <time>2020-03-12T10:28:26.723Z</time>
      </trkpt>
      <trkpt lat="48.03476" lon="6.90697">
        <ele>1060.018677</ele>
        <time>2020-03-12T10:28:28.711Z</time>
      </trkpt>
      <trkpt lat="48.03497" lon="6.90692">
        <ele>1060.186646</ele>
        <time>2020-03-12T10:28:30.703Z</time>
      </trkpt>
      <trkpt lat="48.03512" lon="6.90696">
        <ele>1059.378296</ele>
        <time>2020-03-12T10:28:32.698Z</time>
      </trkpt>
      <trkpt lat="48.03523" lon="6.90695">
        <ele>1058.274414</ele>
        <time>2020-03-12T10:28:34.695Z</time>
      </trkpt>
      <trkpt lat="48.03554" lon="6.90666">
        <ele>1059.082764</ele>
        <time>2020-03-12T10:28:36.700Z</time>
      </trkpt>
      <trkpt lat="48.0359" lon="6.90653">
        <ele>1058.438721</ele>
        <time>2020-03-12T10:28:38.712Z</time>
      </trkpt>
      <trkpt lat="48.03624" lon="6.90626">
        <ele>1056.413452</ele>
        <time>2020-03-12T10:28:40.732Z</time>
      </trkpt>
      <trkpt lat="48.03642" lon="6.90618">
        <ele>1055.015015</ele>
        <time>2020-03-12T10:28:42.756Z</time>
      </trkpt>
      <trkpt lat="48.03658" lon="6.90606">
        <ele>1054.967041</ele>
        <time>2020-03-12T10:28:44.783Z</time>
      </trkpt>
      <trkpt lat="48.03697" lon="6.90535">
        <ele>1056.078979</ele>
        <time>2020-03-12T10:28:46.823Z</time>
      </trkpt>
      <trkpt lat="48.03751" lon="6.90454">
        <ele>1053.017334</ele>
        <time>2020-03-12T10:28:48.878Z</time>
      </trkpt>
      <trkpt lat="48.03774" lon="6.904">
        <ele>1049.237305</ele>
        <time>2020-03-12T10:28:50.941Z</time>
      </trkpt>
      <trkpt lat="48.03792" lon="6.90334">
        <ele>1044.678711</ele>
        <time>2020-03-12T10:28:53.014Z</time>
      </trkpt>
      <trkpt lat="48.03788" lon="6.9032">
        <ele>1045.330444</ele>
        <time>2020-03-12T10:28:55.089Z</time>
      </trkpt>
      <trkpt lat="48.03767" lon="6.90277">
        <ele>1043.434692</ele>
        <time>2020-03-12T10:28:57.171Z</time>
      </trkpt>
      <trkpt lat="48.03757" lon="6.90271">
        <ele>1044.179321</ele>
        <time>2020-03-12T10:28:59.255Z</time>
      </trkpt>
      <trkpt lat="48.03748" lon="6.90275">
        <ele>1045.13916</ele>
        <time>2020-03-12T10:29:01.341Z</time>
      </trkpt>
      <trkpt lat="48.03749" lon="6.90278">
        <ele>1045.487061</ele>
        <time>2020-03-12T10:29:03.428Z</time>
      </trkpt>
      <trkpt lat="48.03739" lon="6.903">
        <ele>1048.870483</ele>
        <time>2020-03-12T10:29:05.518Z</time>
      </trkpt>
      <trkpt lat="48.03734" lon="6.90319">
        <ele>1052.359131</ele>
        <time>2020-03-12T10:29:07.611Z</time>
      </trkpt>
      <trkpt lat="48.03728" lon="6.90327">
        <ele>1053.689331</ele>
        <time>2020-03-12T10:29:09.706Z</time>
      </trkpt>
      <trkpt lat="48.03722" lon="6.90346">
        <ele>1054.64917</ele>
        <time>2020-03-12T10:29:11.803Z</time>
      </trkpt>
      <trkpt lat="48.03714" lon="6.90354">
        <ele>1055.513062</ele>
        <time>2020-03-12T10:29:13.902Z</time>
      </trkpt>
      <trkpt lat="48.03708" lon="6.9037">
        <ele>1057.255249</ele>
        <time>2020-03-12T10:29:16.004Z</time>
      </trkpt>
      <trkpt lat="48.03693" lon="6.90394">
        <ele>1061.430542</ele>
        <time>2020-03-12T10:29:18.110Z</time>
      </trkpt>
      <trkpt lat="48.03684" lon="6.90402">
        <ele>1063.398193</ele>
        <time>2020-03-12T10:29:20.218Z</time>
      </trkpt>
      <trkpt lat="48.03666" lon="6.90408">
        <ele>1065.926025</ele>
        <time>2020-03-12T10:29:22.330Z</time>
      </trkpt>
      <trkpt lat="48.03647" lon="6.90423">
        <ele>1067.749756</ele>
        <time>2020-03-12T10:29:24.446Z</time>
      </trkpt>
      <trkpt lat="48.03638" lon="6.90442">
        <ele>1068.613525</ele>
        <time>2020-03-12T10:29:26.565Z</time>
      </trkpt>
      <trkpt lat="48.03644" lon="6.90461">
        <ele>1067.976563</ele>
        <time>2020-03-12T10:29:28.687Z</time>
      </trkpt>
      <trkpt lat="48.03646" lon="6.90483">
        <ele>1067.304688</ele>
        <time>2020-03-12T10:29:30.812Z</time>
      </trkpt>
      <trkpt lat="48.03645" lon="6.90487">
        <ele>1067.28064</ele>
        <time>2020-03-12T10:29:32.938Z</time>
      </trkpt>
      <trkpt lat="48.03626" lon="6.9051">
        <ele>1066.66394</ele>
        <time>2020-03-12T10:29:35.069Z</time>
      </trkpt>
      <trkpt lat="48.03608" lon="6.90519">
        <ele>1067.254272</ele>
        <time>2020-03-12T10:29:37.203Z</time>
      </trkpt>
      <trkpt lat="48.03584" lon="6.90536">
        <ele>1067.642944</ele>
        <time>2020-03-12T10:29:39.343Z</time>
      </trkpt>
      <trkpt lat="48.03562" lon="6.90539">
        <ele>1068.710815</ele>
        <time>2020-03-12T10:29:41.487Z</time>
      </trkpt>
      <trkpt lat="48.03551" lon="6.90543">
        <ele>1069.164917</ele>
        <time>2020-03-12T10:29:43.633Z</time>
      </trkpt>
      <trkpt lat="48.03536" lon="6.9056">
        <ele>1069.020996</ele>
        <time>2020-03-12T10:29:45.783Z</time>
      </trkpt>
      <trkpt lat="48.03527" lon="6.90563">
        <ele>1069.452881</ele>
        <time>2020-03-12T10:29:47.935Z</time>
      </trkpt>
      <trkpt lat="48.03495" lon="6.90555">
        <ele>1072.165039</ele>
        <time>2020-03-12T10:29:50.094Z</time>
      </trkpt>
      <trkpt lat="48.03472" lon="6.90561">
        <ele>1072.524902</ele>
        <time>2020-03-12T10:29:52.257Z</time>
      </trkpt>
      <trkpt lat="48.03463" lon="6.90568">
        <ele>1072.17688</ele>
        <time>2020-03-12T10:29:54.422Z</time>
      </trkpt>
      <trkpt lat="48.03437" lon="6.90616">
        <ele>1068.268433</ele>
        <time>2020-03-12T10:29:56.596Z</time>
      </trkpt>
      <trkpt lat="48.03424" lon="6.90652">
        <ele>1064.382935</ele>
        <time>2020-03-12T10:29:58.775Z</time>
      </trkpt>
      <trkpt lat="48.03405" lon="6.90711">
        <ele>1059.512085</ele>
        <time>2020-03-12T10:30:00.963Z</time>
      </trkpt>
      <trkpt lat="48.034" lon="6.90735">
        <ele>1057.035767</ele>
        <time>2020-03-12T10:30:03.154Z</time>
      </trkpt>
      <trkpt lat="48.03389" lon="6.90764">
        <ele>1055.200195</ele>
        <time>2020-03-12T10:30:05.350Z</time>
      </trkpt>
      <trkpt lat="48.03386" lon="6.90782">
        <ele>1054.696289</ele>
        <time>2020-03-12T10:30:07.548Z</time>
      </trkpt>
      <trkpt lat="48.03395" lon="6.90842">
        <ele>1052.560059</ele>
        <time>2020-03-12T10:30:09.754Z</time>
      </trkpt>
      <trkpt lat="48.03414" lon="6.90906">
        <ele>1052.961426</ele>
        <time>2020-03-12T10:30:11.970Z</time>
      </trkpt>
      <trkpt lat="48.03427" lon="6.90988">
        <ele>1052.162231</ele>
        <time>2020-03-12T10:30:14.197Z</time>
      </trkpt>
      <trkpt lat="48.0343" lon="6.90996">
        <ele>1052.023193</ele>
        <time>2020-03-12T10:30:16.425Z</time>
      </trkpt>
      <trkpt lat="48.03437" lon="6.9101">
        <ele>1051.435303</ele>
        <time>2020-03-12T10:30:18.656Z</time>
      </trkpt>
      <trkpt lat="48.03465" lon="6.9105">
        <ele>1051.195313</ele>
        <time>2020-03-12T10:30:20.894Z</time>
      </trkpt>
      <trkpt lat="48.03487" lon="6.91093">
        <ele>1048.078125</ele>
        <time>2020-03-12T10:30:23.140Z</time>
      </trkpt>
      <trkpt lat="48.03499" lon="6.9111">
        <ele>1046.770264</ele>
        <time>2020-03-12T10:30:25.389Z</time>
      </trkpt>
      <trkpt lat="48.03513" lon="6.9112">
        <ele>1047.590088</ele>
        <time>2020-03-12T10:30:27.641Z</time>
      </trkpt>
      <trkpt lat="48.03534" lon="6.91127">
        <ele>1051.705444</ele>
        <time>2020-03-12T10:30:29.897Z</time>
      </trkpt>
      <trkpt lat="48.03567" lon="6.91161">
        <ele>1053.134888</ele>
        <time>2020-03-12T10:30:32.161Z</time>
      </trkpt>
      <trkpt lat="48.036" lon="6.91189">
        <ele>1053.41333</ele>
        <time>2020-03-12T10:30:34.433Z</time>
      </trkpt>
      <trkpt lat="48.03618" lon="6.91201">
        <ele>1053.845215</ele>
        <time>2020-03-12T10:30:36.709Z</time>
      </trkpt>
      <trkpt lat="48.03681" lon="6.91229">
        <ele>1057.598145</ele>
        <time>2020-03-12T10:30:38.998Z</time>
      </trkpt>
      <trkpt lat="48.03706" lon="6.91249">
        <ele>1057.645874</ele>
        <time>2020-03-12T10:30:41.293Z</time>
      </trkpt>
      <trkpt lat="48.03715" lon="6.91259">
        <ele>1057.897827</ele>
        <time>2020-03-12T10:30:43.590Z</time>
      </trkpt>
      <trkpt lat="48.03774" lon="6.91362">
        <ele>1055.505981</ele>
        <time>2020-03-12T10:30:45.905Z</time>
      </trkpt>
      <trkpt lat="48.03786" lon="6.91377">
        <ele>1056.153931</ele>
        <time>2020-03-12T10:30:48.223Z</time>
      </trkpt>
      <trkpt lat="48.03816" lon="6.91405">
        <ele>1059.369385</ele>
        <time>2020-03-12T10:30:50.549Z</time>
      </trkpt>
      <trkpt lat="48.03824" lon="6.91423">
        <ele>1059.422119</ele>
        <time>2020-03-12T10:30:52.877Z</time>
      </trkpt>
      <trkpt lat="48.03837" lon="6.9149">
        <ele>1055.192627</ele>
        <time>2020-03-12T10:30:55.215Z</time>
      </trkpt>
      <trkpt lat="48.03854" lon="6.91525">
        <ele>1053.263916</ele>
        <time>2020-03-12T10:30:57.559Z</time>
      </trkpt>
      <trkpt lat="48.03869" lon="6.91546">
        <ele>1052.436035</ele>
        <time>2020-03-12T10:30:59.907Z</time>
      </trkpt>
      <trkpt lat="48.03885" lon="6.91564">
        <ele>1052.292114</ele>
        <time>2020-03-12T10:31:02.259Z</time>
      </trkpt>
      <trkpt lat="48.0391" lon="6.9158">
        <ele>1054.25708</ele>
        <time>2020-03-12T10:31:04.616Z</time>
      </trkpt>
      <trkpt lat="48.03928" lon="6.91586">
        <ele>1056.604858</ele>
        <time>2020-03-12T10:31:06.977Z</time>
      </trkpt>
      <trkpt lat="48.03955" lon="6.91591">
        <ele>1058.989502</ele>
        <time>2020-03-12T10:31:09.343Z</time>
      </trkpt>
      <trkpt lat="48.03969" lon="6.91612">
        <ele>1059.157471</ele>
        <time>2020-03-12T10:31:11.713Z</time>
      </trkpt>
      <trkpt lat="48.04027" lon="6.91684">
        <ele>1061.17981</ele>
        <time>2020-03-12T10:31:14.098Z</time>
      </trkpt>
      <trkpt lat="48.04051" lon="6.91732">
        <ele>1062.043701</ele>
        <time>2020-03-12T10:31:16.491Z</time>
      </trkpt>
      <trkpt lat="48.04074" lon="6.91803">
        <ele>1057.610962</ele>
        <time>2020-03-12T10:31:18.895Z</time>
      </trkpt>
      <trkpt lat="48.04094" lon="6.91845">
        <ele>1054.468994</ele>
        <time>2020-03-12T10:31:21.306Z</time>
      </trkpt>
      <trkpt lat="48.04106" lon="6.91858">
        <ele>1054.432983</ele>
        <time>2020-03-12T10:31:23.720Z</time>
      </trkpt>
      <trkpt lat="48.04157" lon="6.91895">
        <ele>1057.564453</ele>
        <time>2020-03-12T10:31:26.145Z</time>
      </trkpt>
      <trkpt lat="48.04182" lon="6.91905">
        <ele>1061.289063</ele>
        <time>2020-03-12T10:31:28.575Z</time>
      </trkpt>
      <trkpt lat="48.04242" lon="6.91973">
        <ele>1066.20813</ele>
        <time>2020-03-12T10:31:31.020Z</time>
      </trkpt>
      <trkpt lat="48.04268" lon="6.9199">
        <ele>1070.20813</ele>
        <time>2020-03-12T10:31:33.471Z</time>
      </trkpt>
      <trkpt lat="48.04293" lon="6.92015">
        <ele>1072.886719</ele>
        <time>2020-03-12T10:31:35.928Z</time>
      </trkpt>
      <trkpt lat="48.04326" lon="6.92037">
        <ele>1077.901855</ele>
        <time>2020-03-12T10:31:38.392Z</time>
      </trkpt>
      <trkpt lat="48.04345" lon="6.92066">
        <ele>1078.355713</ele>
        <time>2020-03-12T10:31:40.862Z</time>
      </trkpt>
      <trkpt lat="48.04359" lon="6.92099">
        <ele>1075.052734</ele>
        <time>2020-03-12T10:31:43.337Z</time>
      </trkpt>
      <trkpt lat="48.04378" lon="6.92131">
        <ele>1072.425171</ele>
        <time>2020-03-12T10:31:45.818Z</time>
      </trkpt>
      <trkpt lat="48.04398" lon="6.92146">
        <ele>1072.125122</ele>
        <time>2020-03-12T10:31:48.303Z</time>
      </trkpt>
      <trkpt lat="48.04416" lon="6.92153">
        <ele>1072.713013</ele>
        <time>2020-03-12T10:31:50.792Z</time>
      </trkpt>
      <trkpt lat="48.04439" lon="6.92155">
        <ele>1071.463501</ele>
        <time>2020-03-12T10:31:53.286Z</time>
      </trkpt>
      <trkpt lat="48.04453" lon="6.92148">
        <ele>1070.707642</ele>
        <time>2020-03-12T10:31:55.783Z</time>
      </trkpt>
      <trkpt lat="48.04464" lon="6.92144">
        <ele>1069.84375</ele>
        <time>2020-03-12T10:31:58.282Z</time>
      </trkpt>
      <trkpt lat="48.04476" lon="6.92143">
        <ele>1068.296021</ele>
        <time>2020-03-12T10:32:00.783Z</time>
      </trkpt>
      <trkpt lat="48.04485" lon="6.92138">
        <ele>1067.900146</ele>
        <time>2020-03-12T10:32:03.286Z</time>
      </trkpt>
      <trkpt lat="48.04507" lon="6.9211">
        <ele>1070.849854</ele>
        <time>2020-03-12T10:32:05.795Z</time>
      </trkpt>
      <trkpt lat="48.04529" lon="6.92096">
        <ele>1067.487915</ele>
        <time>2020-03-12T10:32:08.309Z</time>
      </trkpt>
      <trkpt lat="48.04542" lon="6.92094">
        <ele>1064.600098</ele>
        <time>2020-03-12T10:32:10.825Z</time>
      </trkpt>
      <trkpt lat="48.0456" lon="6.92099">
        <ele>1058.805176</ele>
        <time>2020-03-12T10:32:13.345Z</time>
      </trkpt>
      <trkpt lat="48.04593" lon="6.921">
        <ele>1050.360107</ele>
        <time>2020-03-12T10:32:15.872Z</time>
      </trkpt>
      <trkpt lat="48.04606" lon="6.92095">
        <ele>1051.307983</ele>
        <time>2020-03-12T10:32:18.401Z</time>
      </trkpt>
      <trkpt lat="48.0463" lon="6.92072">
        <ele>1056.280396</ele>
        <time>2020-03-12T10:32:20.936Z</time>
      </trkpt>
      <trkpt lat="48.04652" lon="6.92064">
        <ele>1058.463989</ele>
        <time>2020-03-12T10:32:23.476Z</time>
      </trkpt>
      <trkpt lat="48.04683" lon="6.92071">
        <ele>1055.714478</ele>
        <time>2020-03-12T10:32:26.022Z</time>
      </trkpt>
      <trkpt lat="48.04702" lon="6.92082">
        <ele>1055.731812</ele>
        <time>2020-03-12T10:32:28.572Z</time>
      </trkpt>
      <trkpt lat="48.04744" lon="6.92116">
        <ele>1055.779907</ele>
        <time>2020-03-12T10:32:31.132Z</time>
      </trkpt>
      <trkpt lat="48.04773" lon="6.92161">
        <ele>1053.802612</ele>
        <time>2020-03-12T10:32:33.700Z</time>
      </trkpt>
      <trkpt lat="48.04787" lon="6.92191">
        <ele>1053.424438</ele>
        <time>2020-03-12T10:32:36.273Z</time>
      </trkpt>
      <trkpt lat="48.04823" lon="6.92233">
        <ele>1055.656128</ele>
        <time>2020-03-12T10:32:38.855Z</time>
      </trkpt>
      <trkpt lat="48.04879" lon="6.92343">
        <ele>1053.518677</ele>
        <time>2020-03-12T10:32:41.455Z</time>
      </trkpt>
      <trkpt lat="48.04897" lon="6.92368">
        <ele>1055.990234</ele>
        <time>2020-03-12T10:32:44.060Z</time>
      </trkpt>
      <trkpt lat="48.04922" lon="6.92392">
        <ele>1059.937622</ele>
        <time>2020-03-12T10:32:46.671Z</time>
      </trkpt>
      <trkpt lat="48.04949" lon="6.92453">
        <ele>1056.721802</ele>
        <time>2020-03-12T10:32:49.292Z</time>
      </trkpt>
      <trkpt lat="48.04973" lon="6.92496">
        <ele>1054.32019</ele>
        <time>2020-03-12T10:32:51.921Z</time>
      </trkpt>
      <trkpt lat="48.04996" lon="6.92513">
        <ele>1056.203857</ele>
        <time>2020-03-12T10:32:54.555Z</time>
      </trkpt>
      <trkpt lat="48.05035" lon="6.92527">
        <ele>1058.47644</ele>
        <time>2020-03-12T10:32:57.197Z</time>
      </trkpt>
      <trkpt lat="48.0506" lon="6.9254">
        <ele>1058.810547</ele>
        <time>2020-03-12T10:32:59.844Z</time>
      </trkpt>
      <trkpt lat="48.05118" lon="6.92583">
        <ele>1057.141602</ele>
        <time>2020-03-12T10:33:02.504Z</time>
      </trkpt>
      <trkpt lat="48.05149" lon="6.92601">
        <ele>1055.689819</ele>
        <time>2020-03-12T10:33:05.171Z</time>
      </trkpt>
      <trkpt lat="48.05185" lon="6.92637">
        <ele>1053.535156</ele>
        <time>2020-03-12T10:33:07.846Z</time>
      </trkpt>
      <trkpt lat="48.05213" lon="6.92673">
        <ele>1052.57373</ele>
        <time>2020-03-12T10:33:10.529Z</time>
      </trkpt>
      <trkpt lat="48.05226" lon="6.92694">
        <ele>1052.033813</ele>
        <time>2020-03-12T10:33:13.216Z</time>
      </trkpt>
      <trkpt lat="48.05241" lon="6.92709">
        <ele>1051.853882</ele>
        <time>2020-03-12T10:33:15.906Z</time>
      </trkpt>
      <trkpt lat="48.0527" lon="6.92722">
        <ele>1052.919067</ele>
        <time>2020-03-12T10:33:18.602Z</time>
      </trkpt>
      <trkpt lat="48.05313" lon="6.92736">
        <ele>1056.37439</ele>
        <time>2020-03-12T10:33:21.307Z</time>
      </trkpt>
      <trkpt lat="48.05325" lon="6.92748">
        <ele>1057.672607</ele>
        <time>2020-03-12T10:33:24.015Z</time>
      </trkpt>
      <trkpt lat="48.05333" lon="6.92772">
        <ele>1059.592285</ele>
        <time>2020-03-12T10:33:26.727Z</time>
      </trkpt>
      <trkpt lat="48.05341" lon="6.92818">
        <ele>1062.567749</ele>
        <time>2020-03-12T10:33:29.445Z</time>
      </trkpt>
      <trkpt lat="48.05347" lon="6.92833">
        <ele>1063.202881</ele>
        <time>2020-03-12T10:33:32.165Z</time>
      </trkpt>
      <trkpt lat="48.05362" lon="6.92849">
        <ele>1064.258667</ele>
        <time>2020-03-12T10:33:34.889Z</time>
      </trkpt>
      <trkpt lat="48.05371" lon="6.92873">
        <ele>1064.546631</ele>
        <time>2020-03-12T10:33:37.617Z</time>
      </trkpt>
      <trkpt lat="48.05402" lon="6.92933">
        <ele>1066.392334</ele>
        <time>2020-03-12T10:33:40.355Z</time>
      </trkpt>
      <trkpt lat="48.05429" lon="6.92997">
        <ele>1068.501099</ele>
        <time>2020-03-12T10:33:43.103Z</time>
      </trkpt>
      <trkpt lat="48.05435" lon="6.93002">
        <ele>1069.760986</ele>
        <time>2020-03-12T10:33:45.852Z</time>
      </trkpt>
      <trkpt lat="48.05444" lon="6.93002">
        <ele>1071.683838</ele>
        <time>2020-03-12T10:33:48.603Z</time>
      </trkpt>
      <trkpt lat="48.05451" lon="6.93008">
        <ele>1073.111572</ele>
        <time>2020-03-12T10:33:51.356Z</time>
      </trkpt>
      <trkpt lat="48.05456" lon="6.93027">
        <ele>1073.900269</ele>
        <time>2020-03-12T10:33:54.112Z</time>
      </trkpt>
      <trkpt lat="48.05457" lon="6.93075">
        <ele>1072.398804</ele>
        <time>2020-03-12T10:33:56.874Z</time>
      </trkpt>
      <trkpt lat="48.05463" lon="6.9311">
        <ele>1072.158936</ele>
        <time>2020-03-12T10:33:59.641Z</time>
      </trkpt>
      <trkpt lat="48.05465" lon="6.93153">
        <ele>1069.613525</ele>
        <time>2020-03-12T10:34:02.414Z</time>
      </trkpt>
      <trkpt lat="48.05468" lon="6.93166">
        <ele>1069.469604</ele>
        <time>2020-03-12T10:34:05.189Z</time>
      </trkpt>
      <trkpt lat="48.05468" lon="6.93199">
        <ele>1067.093994</ele>
        <time>2020-03-12T10:34:07.968Z</time>
      </trkpt>
      <trkpt lat="48.05477" lon="6.93229">
        <ele>1067.061279</ele>
        <time>2020-03-12T10:34:10.751Z</time>
      </trkpt>
      <trkpt lat="48.05498" lon="6.93267">
        <ele>1069.030273</ele>
        <time>2020-03-12T10:34:13.541Z</time>
      </trkpt>
      <trkpt lat="48.05505" lon="6.93291">
        <ele>1068.370361</ele>
        <time>2020-03-12T10:34:16.334Z</time>
      </trkpt>
      <trkpt lat="48.05525" lon="6.93335">
        <ele>1068.76123</ele>
        <time>2020-03-12T10:34:19.135Z</time>
      </trkpt>
      <trkpt lat="48.05548" lon="6.93366">
        <ele>1071.208862</ele>
        <time>2020-03-12T10:34:21.942Z</time>
      </trkpt>
      <trkpt lat="48.05558" lon="6.9339">
        <ele>1071.136841</ele>
        <time>2020-03-12T10:34:24.753Z</time>
      </trkpt>
      <trkpt lat="48.05576" lon="6.9341">
        <ele>1073.446533</ele>
        <time>2020-03-12T10:34:27.568Z</time>
      </trkpt>
      <trkpt lat="48.05579" lon="6.93412">
        <ele>1073.938477</ele>
        <time>2020-03-12T10:34:30.384Z</time>
      </trkpt>
      <trkpt lat="48.05596" lon="6.93412">
        <ele>1077.858154</ele>
        <time>2020-03-12T10:34:33.203Z</time>
      </trkpt>
      <trkpt lat="48.05604" lon="6.93415">
        <ele>1078.78772</ele>
        <time>2020-03-12T10:34:36.024Z</time>
      </trkpt>
      <trkpt lat="48.05626" lon="6.93447">
        <ele>1077.558228</ele>
        <time>2020-03-12T10:34:38.851Z</time>
      </trkpt>
      <trkpt lat="48.05634" lon="6.93465">
        <ele>1076.334473</ele>
        <time>2020-03-12T10:34:41.681Z</time>
      </trkpt>
      <trkpt lat="48.05634" lon="6.93509">
        <ele>1070.527466</ele>
        <time>2020-03-12T10:34:44.517Z</time>
      </trkpt>
      <trkpt lat="48.05641" lon="6.93539">
        <ele>1067.575928</ele>
        <time>2020-03-12T10:34:47.357Z</time>
      </trkpt>
      <trkpt lat="48.05647" lon="6.9355">
        <ele>1066.988037</ele>
        <time>2020-03-12T10:34:50.199Z</time>
      </trkpt>
      <trkpt lat="48.05651" lon="6.93553">
        <ele>1067.167969</ele>
        <time>2020-03-12T10:34:53.042Z</time>
      </trkpt>
      <trkpt lat="48.05659" lon="6.93554">
        <ele>1068.187866</ele>
        <time>2020-03-12T10:34:55.886Z</time>
      </trkpt>
      <trkpt lat="48.05693" lon="6.93545">
        <ele>1072.637207</ele>
        <time>2020-03-12T10:34:58.737Z</time>
      </trkpt>
      <trkpt lat="48.05702" lon="6.93548">
        <ele>1072.673218</ele>
        <time>2020-03-12T10:35:01.590Z</time>
      </trkpt>
      <trkpt lat="48.05748" lon="6.93576">
        <ele>1071.357788</ele>
        <time>2020-03-12T10:35:04.453Z</time>
      </trkpt>
      <trkpt lat="48.05761" lon="6.93578">
        <ele>1071.584839</ele>
        <time>2020-03-12T10:35:07.319Z</time>
      </trkpt>
      <trkpt lat="48.0576" lon="6.93632">
        <ele>1069.125244</ele>
        <time>2020-03-12T10:35:10.192Z</time>
      </trkpt>
      <trkpt lat="48.05767" lon="6.9369">
        <ele>1066.270508</ele>
        <time>2020-03-12T10:35:13.073Z</time>
      </trkpt>
      <trkpt lat="48.05774" lon="6.93723">
        <ele>1064.578735</ele>
        <time>2020-03-12T10:35:15.959Z</time>
      </trkpt>
      <trkpt lat="48.05773" lon="6.93745">
        <ele>1064.015747</ele>
        <time>2020-03-12T10:35:18.847Z</time>
      </trkpt>
      <trkpt lat="48.05777" lon="6.93765">
        <ele>1063.16626</ele>
        <time>2020-03-12T10:35:21.738Z</time>
      </trkpt>
      <trkpt lat="48.05789" lon="6.9378">
        <ele>1062.050537</ele>
        <time>2020-03-12T10:35:24.632Z</time>
      </trkpt>
      <trkpt lat="48.05802" lon="6.93803">
        <ele>1060.27478</ele>
        <time>2020-03-12T10:35:27.530Z</time>
      </trkpt>
      <trkpt lat="48.05812" lon="6.93828">
        <ele>1058.487549</ele>
        <time>2020-03-12T10:35:30.432Z</time>
      </trkpt>
      <trkpt lat="48.05817" lon="6.9385">
        <ele>1057.755737</ele>
        <time>2020-03-12T10:35:33.337Z</time>
      </trkpt>
      <trkpt lat="48.05823" lon="6.93855">
        <ele>1057.647705</ele>
        <time>2020-03-12T10:35:36.244Z</time>
      </trkpt>
      <trkpt lat="48.05845" lon="6.93854">
        <ele>1057.640869</ele>
        <time>2020-03-12T10:35:39.155Z</time>
      </trkpt>
      <trkpt lat="48.05856" lon="6.9386">
        <ele>1056.105103</ele>
        <time>2020-03-12T10:35:42.069Z</time>
      </trkpt>
      <trkpt lat="48.0587" lon="6.93857">
        <ele>1054.533325</ele>
        <time>2020-03-12T10:35:44.985Z</time>
      </trkpt>
      <trkpt lat="48.05882" lon="6.93859">
        <ele>1052.659302</ele>
        <time>2020-03-12T10:35:47.904Z</time>
      </trkpt>
      <trkpt lat="48.05885" lon="6.93864">
        <ele>1052.287354</ele>
        <time>2020-03-12T10:35:50.824Z</time>
      </trkpt>
      <trkpt lat="48.05889" lon="6.93877">
        <ele>1051.533936</ele>
        <time>2020-03-12T10:35:53.746Z</time>
      </trkpt>
      <trkpt lat="48.05901" lon="6.93949">
        <ele>1046.502808</ele>
        <time>2020-03-12T10:35:56.678Z</time>
      </trkpt>
      <trkpt lat="48.05867" lon="6.94058">
        <ele>1039.265137</ele>
        <time>2020-03-12T10:35:59.626Z</time>
      </trkpt>
      <trkpt lat="48.05865" lon="6.94078">
        <ele>1035.934448</ele>
        <time>2020-03-12T10:36:02.576Z</time>
      </trkpt>
      <trkpt lat="48.05868" lon="6.94084">
        <ele>1033.882813</ele>
        <time>2020-03-12T10:36:05.527Z</time>
      </trkpt>
      <trkpt lat="48.05874" lon="6.94081">
        <ele>1034.278809</ele>
        <time>2020-03-12T10:36:08.480Z</time>
      </trkpt>
      <trkpt lat="48.05886" lon="6.94068">
        <ele>1036.229614</ele>
        <time>2020-03-12T10:36:11.436Z</time>
      </trkpt>
      <trkpt lat="48.05899" lon="6.9406">
        <ele>1036.289551</ele>
        <time>2020-03-12T10:36:14.395Z</time>
      </trkpt>
      <trkpt lat="48.05908" lon="6.9405">
        <ele>1036.757202</ele>
        <time>2020-03-12T10:36:17.356Z</time>
      </trkpt>
      <trkpt lat="48.05949" lon="6.94023">
        <ele>1032.272339</ele>
        <time>2020-03-12T10:36:20.326Z</time>
      </trkpt>
      <trkpt lat="48.05955" lon="6.94022">
        <ele>1031.012573</ele>
        <time>2020-03-12T10:36:23.297Z</time>
      </trkpt>
      <trkpt lat="48.05986" lon="6.93997">
        <ele>1027.932983</ele>
        <time>2020-03-12T10:36:26.275Z</time>
      </trkpt>
      <trkpt lat="48.05996" lon="6.93963">
        <ele>1027.872437</ele>
        <time>2020-03-12T10:36:29.258Z</time>
      </trkpt>
      <trkpt lat="48.06001" lon="6.93923">
        <ele>1027.632568</ele>
        <time>2020-03-12T10:36:32.246Z</time>
      </trkpt>
      <trkpt lat="48.06005" lon="6.93913">
        <ele>1026.912598</ele>
        <time>2020-03-12T10:36:35.236Z</time>
      </trkpt>
      <trkpt lat="48.06013" lon="6.93904">
        <ele>1025.132446</ele>
        <time>2020-03-12T10:36:38.228Z</time>
      </trkpt>
      <trkpt lat="48.06027" lon="6.939">
        <ele>1021.892944</ele>
        <time>2020-03-12T10:36:41.223Z</time>
      </trkpt>
      <trkpt lat="48.06058" lon="6.93909">
        <ele>1014.734497</ele>
        <time>2020-03-12T10:36:44.224Z</time>
      </trkpt>
      <trkpt lat="48.06079" lon="6.93908">
        <ele>1010.055298</ele>
        <time>2020-03-12T10:36:47.229Z</time>
      </trkpt>
      <trkpt lat="48.06088" lon="6.93904">
        <ele>1008.035217</ele>
        <time>2020-03-12T10:36:50.236Z</time>
      </trkpt>
      <trkpt lat="48.06098" lon="6.93886">
        <ele>1006.049194</ele>
        <time>2020-03-12T10:36:53.246Z</time>
      </trkpt>
      <trkpt lat="48.06097" lon="6.93876">
        <ele>1006.229187</ele>
        <time>2020-03-12T10:36:56.258Z</time>
      </trkpt>
      <trkpt lat="48.06091" lon="6.93866">
        <ele>1007.370789</ele>
        <time>2020-03-12T10:36:59.272Z</time>
      </trkpt>
      <trkpt lat="48.0608" lon="6.93817">
        <ele>1009.243225</ele>
        <time>2020-03-12T10:37:02.292Z</time>
      </trkpt>
      <trkpt lat="48.0608" lon="6.93792">
        <ele>1007.443542</ele>
        <time>2020-03-12T10:37:05.316Z</time>
      </trkpt>
      <trkpt lat="48.06085" lon="6.9378">
        <ele>1005.499878</ele>
        <time>2020-03-12T10:37:08.342Z</time>
      </trkpt>
      <trkpt lat="48.06095" lon="6.93781">
        <ele>1003.494385</ele>
        <time>2020-03-12T10:37:11.370Z</time>
      </trkpt>
      <trkpt lat="48.06098" lon="6.93784">
        <ele>1003.170471</ele>
        <time>2020-03-12T10:37:14.398Z</time>
      </trkpt>
      <trkpt lat="48.06108" lon="6.93802">
        <ele>1002.666565</ele>
        <time>2020-03-12T10:37:17.430Z</time>
      </trkpt>
      <trkpt lat="48.06126" lon="6.93825">
        <ele>1001.01001</ele>
        <time>2020-03-12T10:37:20.466Z</time>
      </trkpt>
      <trkpt lat="48.06136" lon="6.93834">
        <ele>999.210327</ele>
        <time>2020-03-12T10:37:23.505Z</time>
      </trkpt>
      <trkpt lat="48.06151" lon="6.93834">
        <ele>996.510803</ele>
        <time>2020-03-12T10:37:26.547Z</time>
      </trkpt>
      <trkpt lat="48.06157" lon="6.93824">
        <ele>995.430969</ele>
        <time>2020-03-12T10:37:29.590Z</time>
      </trkpt>
      <trkpt lat="48.06158" lon="6.93818">
        <ele>994.819824</ele>
        <time>2020-03-12T10:37:32.634Z</time>
      </trkpt>
      <trkpt lat="48.06153" lon="6.93801">
        <ele>994.495911</ele>
        <time>2020-03-12T10:37:35.681Z</time>
      </trkpt>
      <trkpt lat="48.06151" lon="6.93735">
        <ele>988.706055</ele>
        <time>2020-03-12T10:37:38.737Z</time>
      </trkpt>
      <trkpt lat="48.06116" lon="6.93641">
        <ele>987.485779</ele>
        <time>2020-03-12T10:37:41.807Z</time>
      </trkpt>
      <trkpt lat="48.06113" lon="6.93623">
        <ele>986.765869</ele>
        <time>2020-03-12T10:37:44.880Z</time>
      </trkpt>
      <trkpt lat="48.06112" lon="6.93602">
        <ele>985.266113</ele>
        <time>2020-03-12T10:37:47.955Z</time>
      </trkpt>
      <trkpt lat="48.06116" lon="6.93597">
        <ele>983.787598</ele>
        <time>2020-03-12T10:37:51.031Z</time>
      </trkpt>
      <trkpt lat="48.0612" lon="6.93582">
        <ele>981.244019</ele>
        <time>2020-03-12T10:37:54.110Z</time>
      </trkpt>
      <trkpt lat="48.06126" lon="6.93571">
        <ele>978.956848</ele>
        <time>2020-03-12T10:37:57.191Z</time>
      </trkpt>
      <trkpt lat="48.06161" lon="6.93571">
        <ele>969.298462</ele>
        <time>2020-03-12T10:38:00.279Z</time>
      </trkpt>
      <trkpt lat="48.06169" lon="6.93574">
        <ele>966.954407</ele>
        <time>2020-03-12T10:38:03.368Z</time>
      </trkpt>
      <trkpt lat="48.0618" lon="6.93602">
        <ele>966.653687</ele>
        <time>2020-03-12T10:38:06.462Z</time>
      </trkpt>
      <trkpt lat="48.06186" lon="6.9361">
        <ele>965.83783</ele>
        <time>2020-03-12T10:38:09.557Z</time>
      </trkpt>
      <trkpt lat="48.06193" lon="6.93633">
        <ele>966.197754</ele>
        <time>2020-03-12T10:38:12.656Z</time>
      </trkpt>
      <trkpt lat="48.0624" lon="6.93687">
        <ele>960.756958</ele>
        <time>2020-03-12T10:38:15.766Z</time>
      </trkpt>
      <trkpt lat="48.06273" lon="6.93699">
        <ele>952.613831</ele>
        <time>2020-03-12T10:38:18.883Z</time>
      </trkpt>
      <trkpt lat="48.06294" lon="6.93703">
        <ele>945.678955</ele>
        <time>2020-03-12T10:38:22.004Z</time>
      </trkpt>
      <trkpt lat="48.06309" lon="6.93702">
        <ele>940.592651</ele>
        <time>2020-03-12T10:38:25.128Z</time>
      </trkpt>
      <trkpt lat="48.06338" lon="6.93714">
        <ele>933.657776</ele>
        <time>2020-03-12T10:38:28.258Z</time>
      </trkpt>
      <trkpt lat="48.06344" lon="6.93717">
        <ele>932.283813</ele>
        <time>2020-03-12T10:38:31.390Z</time>
      </trkpt>
      <trkpt lat="48.06364" lon="6.93743">
        <ele>928.874634</ele>
        <time>2020-03-12T10:38:34.527Z</time>
      </trkpt>
      <trkpt lat="48.06383" lon="6.93755">
        <ele>924.171387</ele>
        <time>2020-03-12T10:38:37.668Z</time>
      </trkpt>
      <trkpt lat="48.06392" lon="6.93752">
        <ele>922.047729</ele>
        <time>2020-03-12T10:38:40.811Z</time>
      </trkpt>
      <trkpt lat="48.06403" lon="6.93725">
        <ele>918.606079</ele>
        <time>2020-03-12T10:38:43.958Z</time>
      </trkpt>
      <trkpt lat="48.06407" lon="6.93721">
        <ele>917.502808</ele>
        <time>2020-03-12T10:38:47.106Z</time>
      </trkpt>
      <trkpt lat="48.06408" lon="6.93725">
        <ele>917.406311</ele>
        <time>2020-03-12T10:38:50.255Z</time>
      </trkpt>
      <trkpt lat="48.06427" lon="6.93714">
        <ele>917.142883</ele>
        <time>2020-03-12T10:38:53.408Z</time>
      </trkpt>
      <trkpt lat="48.06442" lon="6.93698">
        <ele>918.162659</ele>
        <time>2020-03-12T10:38:56.565Z</time>
      </trkpt>
      <trkpt lat="48.06465" lon="6.9368">
        <ele>920.302185</ele>
        <time>2020-03-12T10:38:59.727Z</time>
      </trkpt>
      <trkpt lat="48.06476" lon="6.93679">
        <ele>920.770142</ele>
        <time>2020-03-12T10:39:02.891Z</time>
      </trkpt>
      <trkpt lat="48.06491" lon="6.93686">
        <ele>919.702332</ele>
        <time>2020-03-12T10:39:06.058Z</time>
      </trkpt>
      <trkpt lat="48.06503" lon="6.93683">
        <ele>920.602173</ele>
        <time>2020-03-12T10:39:09.228Z</time>
      </trkpt>
      <trkpt lat="48.06532" lon="6.93682">
        <ele>921.231506</ele>
        <time>2020-03-12T10:39:12.403Z</time>
      </trkpt>
      <trkpt lat="48.06543" lon="6.93686">
        <ele>920.605713</ele>
        <time>2020-03-12T10:39:15.581Z</time>
      </trkpt>
      <trkpt lat="48.06549" lon="6.93685">
        <ele>920.965637</ele>
        <time>2020-03-12T10:39:18.760Z</time>
      </trkpt>
      <trkpt lat="48.06579" lon="6.93691">
        <ele>920.389709</ele>
        <time>2020-03-12T10:39:21.945Z</time>
      </trkpt>
      <trkpt lat="48.06631" lon="6.93692">
        <ele>919.630188</ele>
        <time>2020-03-12T10:39:25.140Z</time>
      </trkpt>
      <trkpt lat="48.0672" lon="6.93707">
        <ele>915.669067</ele>
        <time>2020-03-12T10:39:28.353Z</time>
      </trkpt>
      <trkpt lat="48.06766" lon="6.93704">
        <ele>915.473694</ele>
        <time>2020-03-12T10:39:31.575Z</time>
      </trkpt>
      <trkpt lat="48.06816" lon="6.93707">
        <ele>914.94342</ele>
        <time>2020-03-12T10:39:34.807Z</time>
      </trkpt>
      <trkpt lat="48.06847" lon="6.93716">
        <ele>913.122192</ele>
        <time>2020-03-12T10:39:38.046Z</time>
      </trkpt>
      <trkpt lat="48.06864" lon="6.93714">
        <ele>912.738281</ele>
        <time>2020-03-12T10:39:41.288Z</time>
      </trkpt>
      <trkpt lat="48.06898" lon="6.93701">
        <ele>913.914063</ele>
        <time>2020-03-12T10:39:44.537Z</time>
      </trkpt>
      <trkpt lat="48.06931" lon="6.93698">
        <ele>913.093689</ele>
        <time>2020-03-12T10:39:47.793Z</time>
      </trkpt>
      <trkpt lat="48.06997" lon="6.93733">
        <ele>903.951233</ele>
        <time>2020-03-12T10:39:51.063Z</time>
      </trkpt>
      <trkpt lat="48.07048" lon="6.93756">
        <ele>897.575989</ele>
        <time>2020-03-12T10:39:54.344Z</time>
      </trkpt>
      <trkpt lat="48.07069" lon="6.93762">
        <ele>895.704285</ele>
        <time>2020-03-12T10:39:57.629Z</time>
      </trkpt>
      <trkpt lat="48.07099" lon="6.93766">
        <ele>894.366089</ele>
        <time>2020-03-12T10:40:00.920Z</time>
      </trkpt>
      <trkpt lat="48.0712" lon="6.93766">
        <ele>894.785645</ele>
        <time>2020-03-12T10:40:04.215Z</time>
      </trkpt>
      <trkpt lat="48.07145" lon="6.93776">
        <ele>892.386047</ele>
        <time>2020-03-12T10:40:07.515Z</time>
      </trkpt>
      <trkpt lat="48.07151" lon="6.93776">
        <ele>892.242065</ele>
        <time>2020-03-12T10:40:10.816Z</time>
      </trkpt>
      <trkpt lat="48.07166" lon="6.9377">
        <ele>892.961914</ele>
        <time>2020-03-12T10:40:14.121Z</time>
      </trkpt>
      <trkpt lat="48.07186" lon="6.93767">
        <ele>894.194031</ele>
        <time>2020-03-12T10:40:17.430Z</time>
      </trkpt>
      <trkpt lat="48.072" lon="6.93757">
        <ele>896.715088</ele>
        <time>2020-03-12T10:40:20.742Z</time>
      </trkpt>
      <trkpt lat="48.07214" lon="6.93741">
        <ele>898.418762</ele>
        <time>2020-03-12T10:40:24.057Z</time>
      </trkpt>
      <trkpt lat="48.07226" lon="6.93743">
        <ele>898.370789</ele>
        <time>2020-03-12T10:40:27.375Z</time>
      </trkpt>
      <trkpt lat="48.07237" lon="6.93738">
        <ele>899.077759</ele>
        <time>2020-03-12T10:40:30.695Z</time>
      </trkpt>
      <trkpt lat="48.07245" lon="6.93731">
        <ele>900.097595</ele>
        <time>2020-03-12T10:40:34.017Z</time>
      </trkpt>
      <trkpt lat="48.07272" lon="6.9369">
        <ele>901.269897</ele>
        <time>2020-03-12T10:40:37.346Z</time>
      </trkpt>
      <trkpt lat="48.0728" lon="6.93689">
        <ele>901.593872</ele>
        <time>2020-03-12T10:40:40.677Z</time>
      </trkpt>
      <trkpt lat="48.07301" lon="6.93693">
        <ele>901.725647</ele>
        <time>2020-03-12T10:40:44.012Z</time>
      </trkpt>
      <trkpt lat="48.07321" lon="6.93702">
        <ele>901.197754</ele>
        <time>2020-03-12T10:40:47.351Z</time>
      </trkpt>
      <trkpt lat="48.07334" lon="6.93713">
        <ele>901.101746</ele>
        <time>2020-03-12T10:40:50.693Z</time>
      </trkpt>
      <trkpt lat="48.07371" lon="6.93737">
        <ele>901.15155</ele>
        <time>2020-03-12T10:40:54.044Z</time>
      </trkpt>
      <trkpt lat="48.07402" lon="6.93762">
        <ele>900.326172</ele>
        <time>2020-03-12T10:40:57.402Z</time>
      </trkpt>
      <trkpt lat="48.07422" lon="6.93775">
        <ele>899.690308</ele>
        <time>2020-03-12T10:41:00.764Z</time>
      </trkpt>
      <trkpt lat="48.07458" lon="6.93793">
        <ele>900.513794</ele>
        <time>2020-03-12T10:41:04.134Z</time>
      </trkpt>
      <trkpt lat="48.07507" lon="6.93829">
        <ele>901.424744</ele>
        <time>2020-03-12T10:41:07.515Z</time>
      </trkpt>
      <trkpt lat="48.07515" lon="6.93833">
        <ele>899.844055</ele>
        <time>2020-03-12T10:41:10.897Z</time>
      </trkpt>
      <trkpt lat="48.07521" lon="6.93833">
        <ele>898.631714</ele>
        <time>2020-03-12T10:41:14.280Z</time>
      </trkpt>
      <trkpt lat="48.07547" lon="6.93825">
        <ele>896.424072</ele>
        <time>2020-03-12T10:41:17.669Z</time>
      </trkpt>
      <trkpt lat="48.07565" lon="6.93814">
        <ele>892.947937</ele>
        <time>2020-03-12T10:41:21.062Z</time>
      </trkpt>
      <trkpt lat="48.07577" lon="6.93816">
        <ele>891.436157</ele>
        <time>2020-03-12T10:41:24.457Z</time>
      </trkpt>
      <trkpt lat="48.0759" lon="6.93812">
        <ele>889.673767</ele>
        <time>2020-03-12T10:41:27.855Z</time>
      </trkpt>
      <trkpt lat="48.07602" lon="6.93819">
        <ele>888.460022</ele>
        <time>2020-03-12T10:41:31.255Z</time>
      </trkpt>
      <trkpt lat="48.07609" lon="6.93818">
        <ele>887.404175</ele>
        <time>2020-03-12T10:41:34.657Z</time>
      </trkpt>
      <trkpt lat="48.07634" lon="6.93807">
        <ele>883.276855</ele>
        <time>2020-03-12T10:41:38.064Z</time>
      </trkpt>
      <trkpt lat="48.07655" lon="6.93786">
        <ele>880.445923</ele>
        <time>2020-03-12T10:41:41.476Z</time>
      </trkpt>
      <trkpt lat="48.07689" lon="6.93701">
        <ele>873.930908</ele>
        <time>2020-03-12T10:41:44.901Z</time>
      </trkpt>
      <trkpt lat="48.07705" lon="6.93636">
        <ele>867.936646</ele>
        <time>2020-03-12T10:41:48.336Z</time>
      </trkpt>
      <trkpt lat="48.07719" lon="6.93597">
        <ele>864.455994</ele>
        <time>2020-03-12T10:41:51.776Z</time>
      </trkpt>
      <trkpt lat="48.07731" lon="6.93552">
        <ele>860.117737</ele>
        <time>2020-03-12T10:41:55.223Z</time>
      </trkpt>
      <trkpt lat="48.07738" lon="6.93518">
        <ele>857.423401</ele>
        <time>2020-03-12T10:41:58.675Z</time>
      </trkpt>
      <trkpt lat="48.07726" lon="6.93498">
        <ele>856.655518</ele>
        <time>2020-03-12T10:42:02.130Z</time>
      </trkpt>
      <trkpt lat="48.07725" lon="6.93487">
        <ele>855.556458</ele>
        <time>2020-03-12T10:42:05.587Z</time>
      </trkpt>
      <trkpt lat="48.07729" lon="6.93451">
        <ele>849.145142</ele>
        <time>2020-03-12T10:42:09.049Z</time>
      </trkpt>
      <trkpt lat="48.07738" lon="6.93415">
        <ele>845.14978</ele>
        <time>2020-03-12T10:42:12.516Z</time>
      </trkpt>
      <trkpt lat="48.07786" lon="6.93327">
        <ele>830.415771</ele>
        <time>2020-03-12T10:42:15.998Z</time>
      </trkpt>
      <trkpt lat="48.07818" lon="6.93279">
        <ele>817.957336</ele>
        <time>2020-03-12T10:42:19.489Z</time>
      </trkpt>
      <trkpt lat="48.07834" lon="6.93264">
        <ele>814.477905</ele>
        <time>2020-03-12T10:42:22.984Z</time>
      </trkpt>
      <trkpt lat="48.07846" lon="6.93269">
        <ele>814.131287</ele>
        <time>2020-03-12T10:42:26.481Z</time>
      </trkpt>
      <trkpt lat="48.07849" lon="6.93274">
        <ele>814.323303</ele>
        <time>2020-03-12T10:42:29.979Z</time>
      </trkpt>
      <trkpt lat="48.07864" lon="6.93264">
        <ele>809.404114</ele>
        <time>2020-03-12T10:42:33.481Z</time>
      </trkpt>
      <trkpt lat="48.07868" lon="6.93264">
        <ele>808.67041</ele>
        <time>2020-03-12T10:42:36.983Z</time>
      </trkpt>
      <trkpt lat="48.07871" lon="6.93266">
        <ele>808.442444</ele>
        <time>2020-03-12T10:42:40.486Z</time>
      </trkpt>
      <trkpt lat="48.07876" lon="6.93278">
        <ele>809.164124</ele>
        <time>2020-03-12T10:42:43.991Z</time>
      </trkpt>
      <trkpt lat="48.07893" lon="6.93288">
        <ele>807.386658</ele>
        <time>2020-03-12T10:42:47.500Z</time>
      </trkpt>
      <trkpt lat="48.07903" lon="6.93291">
        <ele>806.318848</ele>
        <time>2020-03-12T10:42:51.011Z</time>
      </trkpt>
      <trkpt lat="48.07926" lon="6.93316">
        <ele>805.382996</ele>
        <time>2020-03-12T10:42:54.527Z</time>
      </trkpt>
      <trkpt lat="48.07933" lon="6.93333">
        <ele>802.504883</ele>
        <time>2020-03-12T10:42:58.046Z</time>
      </trkpt>
      <trkpt lat="48.07936" lon="6.93332">
        <ele>801.326111</ele>
        <time>2020-03-12T10:43:01.566Z</time>
      </trkpt>
      <trkpt lat="48.07941" lon="6.93315">
        <ele>799.629578</ele>
        <time>2020-03-12T10:43:05.088Z</time>
      </trkpt>
      <trkpt lat="48.07943" lon="6.93315">
        <ele>798.861694</ele>
        <time>2020-03-12T10:43:08.611Z</time>
      </trkpt>
      <trkpt lat="48.07949" lon="6.93325">
        <ele>797.174805</ele>
        <time>2020-03-12T10:43:12.135Z</time>
      </trkpt>
      <trkpt lat="48.07952" lon="6.93348">
        <ele>793.263428</ele>
        <time>2020-03-12T10:43:15.662Z</time>
      </trkpt>
      <trkpt lat="48.07951" lon="6.93361">
        <ele>792.834534</ele>
        <time>2020-03-12T10:43:19.191Z</time>
      </trkpt>
      <trkpt lat="48.07914" lon="6.93474">
        <ele>791.833252</ele>
        <time>2020-03-12T10:43:22.737Z</time>
      </trkpt>
      <trkpt lat="48.07899" lon="6.93527">
        <ele>793.965698</ele>
        <time>2020-03-12T10:43:26.291Z</time>
      </trkpt>
      <trkpt lat="48.07899" lon="6.93558">
        <ele>790.558777</ele>
        <time>2020-03-12T10:43:29.849Z</time>
      </trkpt>
      <trkpt lat="48.07912" lon="6.93598">
        <ele>779.591919</ele>
        <time>2020-03-12T10:43:33.413Z</time>
      </trkpt>
      <trkpt lat="48.07922" lon="6.93596">
        <ele>773.760925</ele>
        <time>2020-03-12T10:43:36.979Z</time>
      </trkpt>
      <trkpt lat="48.0793" lon="6.93585">
        <ele>771.0224</ele>
        <time>2020-03-12T10:43:40.547Z</time>
      </trkpt>
      <trkpt lat="48.07968" lon="6.93507">
        <ele>770.13147</ele>
        <time>2020-03-12T10:43:44.128Z</time>
      </trkpt>
      <trkpt lat="48.07984" lon="6.93482">
        <ele>768.463745</ele>
        <time>2020-03-12T10:43:47.714Z</time>
      </trkpt>
      <trkpt lat="48.07997" lon="6.93476">
        <ele>765.515076</ele>
        <time>2020-03-12T10:43:51.302Z</time>
      </trkpt>
      <trkpt lat="48.0801" lon="6.93475">
        <ele>759.857483</ele>
        <time>2020-03-12T10:43:54.893Z</time>
      </trkpt>
      <trkpt lat="48.08026" lon="6.9346">
        <ele>756.533997</ele>
        <time>2020-03-12T10:43:58.488Z</time>
      </trkpt>
      <trkpt lat="48.08037" lon="6.93443">
        <ele>754.65033</ele>
        <time>2020-03-12T10:44:02.086Z</time>
      </trkpt>
      <trkpt lat="48.08041" lon="6.93445">
        <ele>753.474548</ele>
        <time>2020-03-12T10:44:05.685Z</time>
      </trkpt>
      <trkpt lat="48.0804" lon="6.93453">
        <ele>753.258545</ele>
        <time>2020-03-12T10:44:09.285Z</time>
      </trkpt>
      <trkpt lat="48.07997" lon="6.93553">
        <ele>757.56958</ele>
        <time>2020-03-12T10:44:12.901Z</time>
      </trkpt>
      <trkpt lat="48.07966" lon="6.93617">
        <ele>757.968567</ele>
        <time>2020-03-12T10:44:16.527Z</time>
      </trkpt>
      <trkpt lat="48.07946" lon="6.93673">
        <ele>759.778137</ele>
        <time>2020-03-12T10:44:20.162Z</time>
      </trkpt>
      <trkpt lat="48.07925" lon="6.9372">
        <ele>762.315552</ele>
        <time>2020-03-12T10:44:23.805Z</time>
      </trkpt>
      <trkpt lat="48.07907" lon="6.93795">
        <ele>762.66864</ele>
        <time>2020-03-12T10:44:27.458Z</time>
      </trkpt>
      <trkpt lat="48.07898" lon="6.93847">
        <ele>758.399841</ele>
        <time>2020-03-12T10:44:31.118Z</time>
      </trkpt>
      <trkpt lat="48.07882" lon="6.93906">
        <ele>754.737854</ele>
        <time>2020-03-12T10:44:34.787Z</time>
      </trkpt>
      <trkpt lat="48.07848" lon="6.93985">
        <ele>748.824829</ele>
        <time>2020-03-12T10:44:38.469Z</time>
      </trkpt>
      <trkpt lat="48.07828" lon="6.9404">
        <ele>747.433716</ele>
        <time>2020-03-12T10:44:42.159Z</time>
      </trkpt>
      <trkpt lat="48.07809" lon="6.94071">
        <ele>747.520081</ele>
        <time>2020-03-12T10:44:45.855Z</time>
      </trkpt>
      <trkpt lat="48.07781" lon="6.94104">
        <ele>752.479553</ele>
        <time>2020-03-12T10:44:49.558Z</time>
      </trkpt>
      <trkpt lat="48.07797" lon="6.94157">
        <ele>739.406555</ele>
        <time>2020-03-12T10:44:53.269Z</time>
      </trkpt>
      <trkpt lat="48.07793" lon="6.94224">
        <ele>737.843262</ele>
        <time>2020-03-12T10:44:56.988Z</time>
      </trkpt>
      <trkpt lat="48.07792" lon="6.94307">
        <ele>737</ele>
        <time>2020-03-12T10:45:00.719Z</time>
      </trkpt>
      <trkpt lat="48.07825" lon="6.94357">
        <ele>737.39978</ele>
        <time>2020-03-12T10:45:04.459Z</time>
      </trkpt>
      <trkpt lat="48.07804" lon="6.94406">
        <ele>736.171204</ele>
        <time>2020-03-12T10:45:08.207Z</time>
      </trkpt>
      <trkpt lat="48.07837" lon="6.94425">
        <ele>738.129578</ele>
        <time>2020-03-12T10:45:11.962Z</time>
      </trkpt>
      <trkpt lat="48.07816" lon="6.94471">
        <ele>738.386597</ele>
        <time>2020-03-12T10:45:15.724Z</time>
      </trkpt>
      <trkpt lat="48.07843" lon="6.94509">
        <ele>739.999756</ele>
        <time>2020-03-12T10:45:19.494Z</time>
      </trkpt>
      <trkpt lat="48.07839" lon="6.94584">
        <ele>739.536438</ele>
        <time>2020-03-12T10:45:23.274Z</time>
      </trkpt>
      <trkpt lat="48.07862" lon="6.94592">
        <ele>739.316467</ele>
        <time>2020-03-12T10:45:27.059Z</time>
      </trkpt>
      <trkpt lat="48.0788" lon="6.94586">
        <ele>738.980896</ele>
        <time>2020-03-12T10:45:30.847Z</time>
      </trkpt>
    </trkseg>
  </trk>
</gpx>